<?xml version="1.0" encoding="utf-8"?>
<gpx xmlns:xsi="http://www.w3.org/2001/XMLSchema-instance" xmlns:xsd="http://www.w3.org/2001/XMLSchema" version="1.1" creator="Shapelink.com" xmlns="http://www.topografix.com/GPX/1/1" xmlns:gpxtpx="http://www.garmin.com/xmlschemas/TrackPointExtension/v1">
  <metadata>
    <name>Ejecutar 22.43 km, 2019-11-23</name>
    <desc></desc>
    <author><name>Per Rooth</name></author> 
    <time>2019-11-23T06:31:26Z</time>
  </metadata>
  <trk>
    <name>Ejecutar 22.43 km, 2019-11-23</name>
    <trkseg>
      <trkpt lat="56.873195779928" lon="14.792794370982">
        <ele>176.8</ele>
        <time>2019-11-23T06:31:26Z</time>
      </trkpt>
      <trkpt lat="56.873012216318" lon="14.792765956341">
        <ele>177.4</ele>
        <time>2019-11-23T06:31:35Z</time>
      </trkpt>
      <trkpt lat="56.87281423584" lon="14.792813900809">
        <ele>177.2</ele>
        <time>2019-11-23T06:31:44Z</time>
      </trkpt>
      <trkpt lat="56.87261558481" lon="14.792822701804">
        <ele>177.6</ele>
        <time>2019-11-23T06:31:53Z</time>
      </trkpt>
      <trkpt lat="56.872568310894" lon="14.792812392067">
        <ele>177.2</ele>
        <time>2019-11-23T06:31:55Z</time>
      </trkpt>
      <trkpt lat="56.872387764768" lon="14.792784061245">
        <ele>177.2</ele>
        <time>2019-11-23T06:32:03Z</time>
      </trkpt>
      <trkpt lat="56.872206967185" lon="14.792741229736">
        <ele>177.4</ele>
        <time>2019-11-23T06:32:11Z</time>
      </trkpt>
      <trkpt lat="56.872084507626" lon="14.792748186713">
        <ele>176.8</ele>
        <time>2019-11-23T06:32:17Z</time>
      </trkpt>
      <trkpt lat="56.871909158278" lon="14.79283644812">
        <ele>176.6</ele>
        <time>2019-11-23T06:32:25Z</time>
      </trkpt>
      <trkpt lat="56.871722744822" lon="14.792931498866">
        <ele>176.8</ele>
        <time>2019-11-23T06:32:32Z</time>
      </trkpt>
      <trkpt lat="56.871596932503" lon="14.793003667025">
        <ele>176.8</ele>
        <time>2019-11-23T06:32:37Z</time>
      </trkpt>
      <trkpt lat="56.871393922885" lon="14.793014479676">
        <ele>176.8</ele>
        <time>2019-11-23T06:32:45Z</time>
      </trkpt>
      <trkpt lat="56.871193511656" lon="14.792936611825">
        <ele>176.4</ele>
        <time>2019-11-23T06:32:53Z</time>
      </trkpt>
      <trkpt lat="56.871024364914" lon="14.792875088679">
        <ele>175.8</ele>
        <time>2019-11-23T06:33:00Z</time>
      </trkpt>
      <trkpt lat="56.870999638309" lon="14.79286075563">
        <ele>175.8</ele>
        <time>2019-11-23T06:33:01Z</time>
      </trkpt>
      <trkpt lat="56.870801657831" lon="14.792782636322">
        <ele>175</ele>
        <time>2019-11-23T06:33:09Z</time>
      </trkpt>
      <trkpt lat="56.870732758613" lon="14.792755646604">
        <ele>174.8</ele>
        <time>2019-11-23T06:33:12Z</time>
      </trkpt>
      <trkpt lat="56.870533856126" lon="14.792683729902">
        <ele>174.2</ele>
        <time>2019-11-23T06:33:20Z</time>
      </trkpt>
      <trkpt lat="56.870352890905" lon="14.792597312513">
        <ele>173.8</ele>
        <time>2019-11-23T06:33:28Z</time>
      </trkpt>
      <trkpt lat="56.870328667214" lon="14.792587086595">
        <ele>173.6</ele>
        <time>2019-11-23T06:33:29Z</time>
      </trkpt>
      <trkpt lat="56.87014040974" lon="14.792465213769">
        <ele>172.6</ele>
        <time>2019-11-23T06:33:37Z</time>
      </trkpt>
      <trkpt lat="56.870069834142" lon="14.792441492992">
        <ele>172.6</ele>
        <time>2019-11-23T06:33:40Z</time>
      </trkpt>
      <trkpt lat="56.869952822818" lon="14.792691608888">
        <ele>172.4</ele>
        <time>2019-11-23T06:33:48Z</time>
      </trkpt>
      <trkpt lat="56.869854251674" lon="14.793017580979">
        <ele>172.4</ele>
        <time>2019-11-23T06:33:56Z</time>
      </trkpt>
      <trkpt lat="56.869774539805" lon="14.793249005238">
        <ele>172.4</ele>
        <time>2019-11-23T06:34:02Z</time>
      </trkpt>
      <trkpt lat="56.86969281628" lon="14.793545137765">
        <ele>171.8</ele>
        <time>2019-11-23T06:34:09Z</time>
      </trkpt>
      <trkpt lat="56.869650990599" lon="14.793667345867">
        <ele>171.6</ele>
        <time>2019-11-23T06:34:12Z</time>
      </trkpt>
      <trkpt lat="56.869487543549" lon="14.793682600925">
        <ele>171</ele>
        <time>2019-11-23T06:34:19Z</time>
      </trkpt>
      <trkpt lat="56.869328874182" lon="14.793470035941">
        <ele>170.6</ele>
        <time>2019-11-23T06:34:26Z</time>
      </trkpt>
      <trkpt lat="56.869284533931" lon="14.793407004053">
        <ele>170.4</ele>
        <time>2019-11-23T06:34:28Z</time>
      </trkpt>
      <trkpt lat="56.869127708582" lon="14.793231319429">
        <ele>169.4</ele>
        <time>2019-11-23T06:34:35Z</time>
      </trkpt>
      <trkpt lat="56.869105915642" lon="14.793215729095">
        <ele>169.4</ele>
        <time>2019-11-23T06:34:36Z</time>
      </trkpt>
      <trkpt lat="56.869055875699" lon="14.793184716065">
        <ele>169.4</ele>
        <time>2019-11-23T06:34:38Z</time>
      </trkpt>
      <trkpt lat="56.868881867455" lon="14.79307449408">
        <ele>169.6</ele>
        <time>2019-11-23T06:34:45Z</time>
      </trkpt>
      <trkpt lat="56.868796036799" lon="14.793074829356">
        <ele>169.4</ele>
        <time>2019-11-23T06:34:49Z</time>
      </trkpt>
      <trkpt lat="56.868680701855" lon="14.793365848924">
        <ele>169.4</ele>
        <time>2019-11-23T06:34:57Z</time>
      </trkpt>
      <trkpt lat="56.868594703561" lon="14.793688132979">
        <ele>169.6</ele>
        <time>2019-11-23T06:35:05Z</time>
      </trkpt>
      <trkpt lat="56.868512393303" lon="14.794023660436">
        <ele>168.8</ele>
        <time>2019-11-23T06:35:13Z</time>
      </trkpt>
      <trkpt lat="56.868466292853" lon="14.794276542359">
        <ele>168.8</ele>
        <time>2019-11-23T06:35:19Z</time>
      </trkpt>
      <trkpt lat="56.868369649546" lon="14.794566388461">
        <ele>169.2</ele>
        <time>2019-11-23T06:35:28Z</time>
      </trkpt>
      <trkpt lat="56.868300750328" lon="14.794905268678">
        <ele>169.6</ele>
        <time>2019-11-23T06:35:37Z</time>
      </trkpt>
      <trkpt lat="56.868214081482" lon="14.79522445143">
        <ele>169.4</ele>
        <time>2019-11-23T06:35:44Z</time>
      </trkpt>
      <trkpt lat="56.868143673522" lon="14.795561571448">
        <ele>169.6</ele>
        <time>2019-11-23T06:35:50Z</time>
      </trkpt>
      <trkpt lat="56.868074355209" lon="14.795758546098">
        <ele>169.8</ele>
        <time>2019-11-23T06:35:55Z</time>
      </trkpt>
      <trkpt lat="56.867917362222" lon="14.79553877268">
        <ele>170.2</ele>
        <time>2019-11-23T06:36:03Z</time>
      </trkpt>
      <trkpt lat="56.867843098588" lon="14.795390748326">
        <ele>170.4</ele>
        <time>2019-11-23T06:36:07Z</time>
      </trkpt>
      <trkpt lat="56.867763386719" lon="14.79523031876">
        <ele>170.4</ele>
        <time>2019-11-23T06:36:13Z</time>
      </trkpt>
      <trkpt lat="56.867640675703" lon="14.794967210919">
        <ele>170.8</ele>
        <time>2019-11-23T06:36:21Z</time>
      </trkpt>
      <trkpt lat="56.867495249738" lon="14.794755987039">
        <ele>170.8</ele>
        <time>2019-11-23T06:36:28Z</time>
      </trkpt>
      <trkpt lat="56.86738276464" lon="14.794534537241">
        <ele>171.4</ele>
        <time>2019-11-23T06:36:35Z</time>
      </trkpt>
      <trkpt lat="56.867261730004" lon="14.794270172115">
        <ele>172.4</ele>
        <time>2019-11-23T06:36:43Z</time>
      </trkpt>
      <trkpt lat="56.867243206005" lon="14.794241673655">
        <ele>172.4</ele>
        <time>2019-11-23T06:36:44Z</time>
      </trkpt>
      <trkpt lat="56.867089817235" lon="14.794004801161">
        <ele>173</ele>
        <time>2019-11-23T06:36:51Z</time>
      </trkpt>
      <trkpt lat="56.866935925551" lon="14.793758038025">
        <ele>173.4</ele>
        <time>2019-11-23T06:37:00Z</time>
      </trkpt>
      <trkpt lat="56.866891417662" lon="14.793676565957">
        <ele>173.4</ele>
        <time>2019-11-23T06:37:02Z</time>
      </trkpt>
      <trkpt lat="56.866854453483" lon="14.79355645333">
        <ele>174</ele>
        <time>2019-11-23T06:37:06Z</time>
      </trkpt>
      <trkpt lat="56.866724366395" lon="14.793343133975">
        <ele>174.6</ele>
        <time>2019-11-23T06:37:13Z</time>
      </trkpt>
      <trkpt lat="56.866550106694" lon="14.793136101045">
        <ele>174.6</ele>
        <time>2019-11-23T06:37:20Z</time>
      </trkpt>
      <trkpt lat="56.866383223065" lon="14.792985394483">
        <ele>174.8</ele>
        <time>2019-11-23T06:37:26Z</time>
      </trkpt>
      <trkpt lat="56.866210891201" lon="14.792867544969">
        <ele>174.6</ele>
        <time>2019-11-23T06:37:33Z</time>
      </trkpt>
      <trkpt lat="56.866034619844" lon="14.792741229736">
        <ele>174</ele>
        <time>2019-11-23T06:37:40Z</time>
      </trkpt>
      <trkpt lat="56.865895983218" lon="14.792623128765">
        <ele>173.6</ele>
        <time>2019-11-23T06:37:46Z</time>
      </trkpt>
      <trkpt lat="56.865704792079" lon="14.792478624809">
        <ele>173</ele>
        <time>2019-11-23T06:37:54Z</time>
      </trkpt>
      <trkpt lat="56.865526425247" lon="14.792384076977">
        <ele>172.6</ele>
        <time>2019-11-23T06:38:01Z</time>
      </trkpt>
      <trkpt lat="56.865498932615" lon="14.792382400597">
        <ele>172.4</ele>
        <time>2019-11-23T06:38:02Z</time>
      </trkpt>
      <trkpt lat="56.865380412549" lon="14.792346274608">
        <ele>171.2</ele>
        <time>2019-11-23T06:38:06Z</time>
      </trkpt>
      <trkpt lat="56.865356607953" lon="14.792328588799">
        <ele>171</ele>
        <time>2019-11-23T06:38:07Z</time>
      </trkpt>
      <trkpt lat="56.865166757918" lon="14.792186264137">
        <ele>170.4</ele>
        <time>2019-11-23T06:38:14Z</time>
      </trkpt>
      <trkpt lat="56.86511210793" lon="14.792145109008">
        <ele>169.8</ele>
        <time>2019-11-23T06:38:16Z</time>
      </trkpt>
      <trkpt lat="56.864961736644" lon="14.791891640352">
        <ele>169.6</ele>
        <time>2019-11-23T06:38:24Z</time>
      </trkpt>
      <trkpt lat="56.864784208002" lon="14.791697096453">
        <ele>171</ele>
        <time>2019-11-23T06:38:31Z</time>
      </trkpt>
      <trkpt lat="56.86464188334" lon="14.791475646655">
        <ele>171.8</ele>
        <time>2019-11-23T06:38:39Z</time>
      </trkpt>
      <trkpt lat="56.864630064861" lon="14.79144589091">
        <ele>172</ele>
        <time>2019-11-23T06:38:40Z</time>
      </trkpt>
      <trkpt lat="56.864561249462" lon="14.791122936303">
        <ele>172.2</ele>
        <time>2019-11-23T06:38:50Z</time>
      </trkpt>
      <trkpt lat="56.864567535887" lon="14.791045990461">
        <ele>172.8</ele>
        <time>2019-11-23T06:38:53Z</time>
      </trkpt>
      <trkpt lat="56.864555717408" lon="14.790988825903">
        <ele>172.8</ele>
        <time>2019-11-23T06:38:55Z</time>
      </trkpt>
      <trkpt lat="56.864385145743" lon="14.790776428557">
        <ele>172.6</ele>
        <time>2019-11-23T06:39:03Z</time>
      </trkpt>
      <trkpt lat="56.864281545459" lon="14.790724125501">
        <ele>172.4</ele>
        <time>2019-11-23T06:39:09Z</time>
      </trkpt>
      <trkpt lat="56.864089599949" lon="14.790712390841">
        <ele>172.6</ele>
        <time>2019-11-23T06:39:17Z</time>
      </trkpt>
      <trkpt lat="56.863902767398" lon="14.790655896835">
        <ele>172.6</ele>
        <time>2019-11-23T06:39:24Z</time>
      </trkpt>
      <trkpt lat="56.863730435534" lon="14.79055154218">
        <ele>172.6</ele>
        <time>2019-11-23T06:39:31Z</time>
      </trkpt>
      <trkpt lat="56.863615771142" lon="14.790487588283">
        <ele>173.2</ele>
        <time>2019-11-23T06:39:36Z</time>
      </trkpt>
      <trkpt lat="56.863421730157" lon="14.790383233628">
        <ele>173.6</ele>
        <time>2019-11-23T06:39:44Z</time>
      </trkpt>
      <trkpt lat="56.863231461027" lon="14.790448612448">
        <ele>173.6</ele>
        <time>2019-11-23T06:39:51Z</time>
      </trkpt>
      <trkpt lat="56.863129620942" lon="14.790610383118">
        <ele>173.6</ele>
        <time>2019-11-23T06:39:56Z</time>
      </trkpt>
      <trkpt lat="56.862988805022" lon="14.790841053006">
        <ele>173.6</ele>
        <time>2019-11-23T06:40:03Z</time>
      </trkpt>
      <trkpt lat="56.862886462023" lon="14.790993435948">
        <ele>173.4</ele>
        <time>2019-11-23T06:40:09Z</time>
      </trkpt>
      <trkpt lat="56.862765511206" lon="14.791257381979">
        <ele>173.2</ele>
        <time>2019-11-23T06:40:16Z</time>
      </trkpt>
      <trkpt lat="56.862648164606" lon="14.791549072099">
        <ele>173</ele>
        <time>2019-11-23T06:40:23Z</time>
      </trkpt>
      <trkpt lat="56.862632993367" lon="14.79159005959">
        <ele>172.8</ele>
        <time>2019-11-23T06:40:24Z</time>
      </trkpt>
      <trkpt lat="56.862587982564" lon="14.791686199983">
        <ele>172.8</ele>
        <time>2019-11-23T06:40:27Z</time>
      </trkpt>
      <trkpt lat="56.862558394457" lon="14.791742693989">
        <ele>172.8</ele>
        <time>2019-11-23T06:40:29Z</time>
      </trkpt>
      <trkpt lat="56.862419087279" lon="14.792037317774">
        <ele>173</ele>
        <time>2019-11-23T06:40:35Z</time>
      </trkpt>
      <trkpt lat="56.862270057097" lon="14.792303862194">
        <ele>172.8</ele>
        <time>2019-11-23T06:40:42Z</time>
      </trkpt>
      <trkpt lat="56.862138125991" lon="14.792592283373">
        <ele>172.6</ele>
        <time>2019-11-23T06:40:47Z</time>
      </trkpt>
      <trkpt lat="56.862033855155" lon="14.792871735919">
        <ele>172.6</ele>
        <time>2019-11-23T06:40:53Z</time>
      </trkpt>
      <trkpt lat="56.861970907086" lon="14.79303509915">
        <ele>172.2</ele>
        <time>2019-11-23T06:40:57Z</time>
      </trkpt>
      <trkpt lat="56.861852638477" lon="14.79331002547">
        <ele>172.6</ele>
        <time>2019-11-23T06:41:05Z</time>
      </trkpt>
      <trkpt lat="56.861729592185" lon="14.793550334543">
        <ele>172.8</ele>
        <time>2019-11-23T06:41:12Z</time>
      </trkpt>
      <trkpt lat="56.861592799577" lon="14.793841186473">
        <ele>172.8</ele>
        <time>2019-11-23T06:41:20Z</time>
      </trkpt>
      <trkpt lat="56.861521888703" lon="14.793939338522">
        <ele>172.8</ele>
        <time>2019-11-23T06:41:23Z</time>
      </trkpt>
      <trkpt lat="56.861474866244" lon="14.794049644326">
        <ele>172.8</ele>
        <time>2019-11-23T06:41:27Z</time>
      </trkpt>
      <trkpt lat="56.861338995645" lon="14.794330689433">
        <ele>172.8</ele>
        <time>2019-11-23T06:41:34Z</time>
      </trkpt>
      <trkpt lat="56.861297840516" lon="14.794435966097">
        <ele>173.2</ele>
        <time>2019-11-23T06:41:36Z</time>
      </trkpt>
      <trkpt lat="56.861165993229" lon="14.794727656217">
        <ele>173.2</ele>
        <time>2019-11-23T06:41:42Z</time>
      </trkpt>
      <trkpt lat="56.861022327463" lon="14.794961762684">
        <ele>173.2</ele>
        <time>2019-11-23T06:41:49Z</time>
      </trkpt>
      <trkpt lat="56.860953092969" lon="14.795293099191">
        <ele>173.2</ele>
        <time>2019-11-23T06:41:57Z</time>
      </trkpt>
      <trkpt lat="56.860935155703" lon="14.795629045743">
        <ele>172.4</ele>
        <time>2019-11-23T06:42:04Z</time>
      </trkpt>
      <trkpt lat="56.860958708842" lon="14.795811435887">
        <ele>172.2</ele>
        <time>2019-11-23T06:42:08Z</time>
      </trkpt>
      <trkpt lat="56.86101754978" lon="14.796051074408">
        <ele>170.8</ele>
        <time>2019-11-23T06:42:14Z</time>
      </trkpt>
      <trkpt lat="56.861099021848" lon="14.796365395658">
        <ele>170</ele>
        <time>2019-11-23T06:42:21Z</time>
      </trkpt>
      <trkpt lat="56.861111510879" lon="14.796403365665">
        <ele>169.6</ele>
        <time>2019-11-23T06:42:22Z</time>
      </trkpt>
      <trkpt lat="56.861202538313" lon="14.79657729009">
        <ele>169.2</ele>
        <time>2019-11-23T06:42:27Z</time>
      </trkpt>
      <trkpt lat="56.86124386108" lon="14.796669574809">
        <ele>168.4</ele>
        <time>2019-11-23T06:42:30Z</time>
      </trkpt>
      <trkpt lat="56.861393477995" lon="14.796878703214">
        <ele>168</ele>
        <time>2019-11-23T06:42:38Z</time>
      </trkpt>
      <trkpt lat="56.861546699127" lon="14.797053633467">
        <ele>168</ele>
        <time>2019-11-23T06:42:45Z</time>
      </trkpt>
      <trkpt lat="56.86169648368" lon="14.797224540408">
        <ele>167.6</ele>
        <time>2019-11-23T06:42:52Z</time>
      </trkpt>
      <trkpt lat="56.861868983182" lon="14.797437105392">
        <ele>167.6</ele>
        <time>2019-11-23T06:43:00Z</time>
      </trkpt>
      <trkpt lat="56.862014576785" lon="14.797681773053">
        <ele>167.4</ele>
        <time>2019-11-23T06:43:06Z</time>
      </trkpt>
      <trkpt lat="56.862041985598" lon="14.798045715151">
        <ele>167.6</ele>
        <time>2019-11-23T06:43:12Z</time>
      </trkpt>
      <trkpt lat="56.861995382234" lon="14.79817320385">
        <ele>167.4</ele>
        <time>2019-11-23T06:43:15Z</time>
      </trkpt>
      <trkpt lat="56.861859427816" lon="14.798446369971">
        <ele>167.2</ele>
        <time>2019-11-23T06:43:23Z</time>
      </trkpt>
      <trkpt lat="56.861747194175" lon="14.798737138082">
        <ele>166.8</ele>
        <time>2019-11-23T06:43:30Z</time>
      </trkpt>
      <trkpt lat="56.861679216966" lon="14.799045424364">
        <ele>167.4</ele>
        <time>2019-11-23T06:43:37Z</time>
      </trkpt>
      <trkpt lat="56.861642923339" lon="14.79937097736">
        <ele>167.8</ele>
        <time>2019-11-23T06:43:43Z</time>
      </trkpt>
      <trkpt lat="56.861577628338" lon="14.79969703327">
        <ele>167</ele>
        <time>2019-11-23T06:43:49Z</time>
      </trkpt>
      <trkpt lat="56.861476794081" lon="14.799975228531">
        <ele>167.4</ele>
        <time>2019-11-23T06:43:56Z</time>
      </trkpt>
      <trkpt lat="56.861374451082" lon="14.800287873401">
        <ele>167.2</ele>
        <time>2019-11-23T06:44:04Z</time>
      </trkpt>
      <trkpt lat="56.861294739213" lon="14.80062826236">
        <ele>167.4</ele>
        <time>2019-11-23T06:44:12Z</time>
      </trkpt>
      <trkpt lat="56.86121787719" lon="14.800977452314">
        <ele>167</ele>
        <time>2019-11-23T06:44:20Z</time>
      </trkpt>
      <trkpt lat="56.861136405122" lon="14.801283643121">
        <ele>167.2</ele>
        <time>2019-11-23T06:44:26Z</time>
      </trkpt>
      <trkpt lat="56.861025428766" lon="14.801543146745">
        <ele>167</ele>
        <time>2019-11-23T06:44:33Z</time>
      </trkpt>
      <trkpt lat="56.861005731301" lon="14.801619589673">
        <ele>167.2</ele>
        <time>2019-11-23T06:44:35Z</time>
      </trkpt>
      <trkpt lat="56.860858880413" lon="14.801870795216">
        <ele>167</ele>
        <time>2019-11-23T06:44:43Z</time>
      </trkpt>
      <trkpt lat="56.86078453296" lon="14.802177991851">
        <ele>167.4</ele>
        <time>2019-11-23T06:44:50Z</time>
      </trkpt>
      <trkpt lat="56.860755950681" lon="14.802515195688">
        <ele>167.6</ele>
        <time>2019-11-23T06:44:57Z</time>
      </trkpt>
      <trkpt lat="56.860655200243" lon="14.802794396777">
        <ele>167.8</ele>
        <time>2019-11-23T06:45:03Z</time>
      </trkpt>
      <trkpt lat="56.860507846441" lon="14.803068652545">
        <ele>167.8</ele>
        <time>2019-11-23T06:45:10Z</time>
      </trkpt>
      <trkpt lat="56.860408437107" lon="14.803349278557">
        <ele>167.4</ele>
        <time>2019-11-23T06:45:16Z</time>
      </trkpt>
      <trkpt lat="56.860293521258" lon="14.80364406998">
        <ele>167.4</ele>
        <time>2019-11-23T06:45:23Z</time>
      </trkpt>
      <trkpt lat="56.860198889607" lon="14.80394330381">
        <ele>167</ele>
        <time>2019-11-23T06:45:32Z</time>
      </trkpt>
      <trkpt lat="56.860188160775" lon="14.80398688969">
        <ele>167.2</ele>
        <time>2019-11-23T06:45:33Z</time>
      </trkpt>
      <trkpt lat="56.860167541301" lon="14.804362063534">
        <ele>167</ele>
        <time>2019-11-23T06:45:40Z</time>
      </trkpt>
      <trkpt lat="56.860205259851" lon="14.804705889072">
        <ele>167.2</ele>
        <time>2019-11-23T06:45:47Z</time>
      </trkpt>
      <trkpt lat="56.860194782476" lon="14.805070836998">
        <ele>167</ele>
        <time>2019-11-23T06:45:53Z</time>
      </trkpt>
      <trkpt lat="56.860090595459" lon="14.805366131335">
        <ele>167.2</ele>
        <time>2019-11-23T06:45:59Z</time>
      </trkpt>
      <trkpt lat="56.860079363713" lon="14.805437042209">
        <ele>167.2</ele>
        <time>2019-11-23T06:46:00Z</time>
      </trkpt>
      <trkpt lat="56.859982049854" lon="14.8057546324">
        <ele>166.8</ele>
        <time>2019-11-23T06:46:07Z</time>
      </trkpt>
      <trkpt lat="56.859887334384" lon="14.806047328348">
        <ele>166.8</ele>
        <time>2019-11-23T06:46:14Z</time>
      </trkpt>
      <trkpt lat="56.859748865396" lon="14.806312112569">
        <ele>167</ele>
        <time>2019-11-23T06:46:21Z</time>
      </trkpt>
      <trkpt lat="56.859568570727" lon="14.80647631399">
        <ele>166.8</ele>
        <time>2019-11-23T06:46:29Z</time>
      </trkpt>
      <trkpt lat="56.859388192239" lon="14.8065760586">
        <ele>166.6</ele>
        <time>2019-11-23T06:46:35Z</time>
      </trkpt>
      <trkpt lat="56.859197587833" lon="14.806618303376">
        <ele>166.8</ele>
        <time>2019-11-23T06:46:42Z</time>
      </trkpt>
      <trkpt lat="56.859057442465" lon="14.806832209464">
        <ele>167.4</ele>
        <time>2019-11-23T06:46:48Z</time>
      </trkpt>
      <trkpt lat="56.858870609914" lon="14.806857019888">
        <ele>167.4</ele>
        <time>2019-11-23T06:46:55Z</time>
      </trkpt>
      <trkpt lat="56.858670114866" lon="14.806803711004">
        <ele>167.2</ele>
        <time>2019-11-23T06:47:02Z</time>
      </trkpt>
      <trkpt lat="56.858493592052" lon="14.806838244432">
        <ele>166.8</ele>
        <time>2019-11-23T06:47:09Z</time>
      </trkpt>
      <trkpt lat="56.858309525528" lon="14.806981658741">
        <ele>166.8</ele>
        <time>2019-11-23T06:47:17Z</time>
      </trkpt>
      <trkpt lat="56.85810483953" lon="14.80698006618">
        <ele>166.8</ele>
        <time>2019-11-23T06:47:25Z</time>
      </trkpt>
      <trkpt lat="56.857993527898" lon="14.806922985441">
        <ele>167</ele>
        <time>2019-11-23T06:47:29Z</time>
      </trkpt>
      <trkpt lat="56.85779303285" lon="14.806896163361">
        <ele>166.8</ele>
        <time>2019-11-23T06:47:36Z</time>
      </trkpt>
      <trkpt lat="56.857590693784" lon="14.806849643816">
        <ele>166.8</ele>
        <time>2019-11-23T06:47:43Z</time>
      </trkpt>
      <trkpt lat="56.857395898428" lon="14.806766746825">
        <ele>167.2</ele>
        <time>2019-11-23T06:47:50Z</time>
      </trkpt>
      <trkpt lat="56.857223315107" lon="14.806624422163">
        <ele>167.2</ele>
        <time>2019-11-23T06:47:57Z</time>
      </trkpt>
      <trkpt lat="56.857048887768" lon="14.806491904324">
        <ele>167.4</ele>
        <time>2019-11-23T06:48:03Z</time>
      </trkpt>
      <trkpt lat="56.856890888953" lon="14.806330720387">
        <ele>167</ele>
        <time>2019-11-23T06:48:08Z</time>
      </trkpt>
      <trkpt lat="56.856724675876" lon="14.806107426571">
        <ele>167</ele>
        <time>2019-11-23T06:48:16Z</time>
      </trkpt>
      <trkpt lat="56.856548404519" lon="14.805959402217">
        <ele>167</ele>
        <time>2019-11-23T06:48:22Z</time>
      </trkpt>
      <trkpt lat="56.856360985235" lon="14.80585605339">
        <ele>166.6</ele>
        <time>2019-11-23T06:48:29Z</time>
      </trkpt>
      <trkpt lat="56.856186474077" lon="14.805723787008">
        <ele>166.8</ele>
        <time>2019-11-23T06:48:36Z</time>
      </trkpt>
      <trkpt lat="56.856022440294" lon="14.805587245857">
        <ele>167</ele>
        <time>2019-11-23T06:48:42Z</time>
      </trkpt>
      <trkpt lat="56.855866788411" lon="14.805415500726">
        <ele>167</ele>
        <time>2019-11-23T06:48:49Z</time>
      </trkpt>
      <trkpt lat="56.855790177845" lon="14.805283737258">
        <ele>166.6</ele>
        <time>2019-11-23T06:48:53Z</time>
      </trkpt>
      <trkpt lat="56.855771905303" lon="14.804924740481">
        <ele>167</ele>
        <time>2019-11-23T06:49:02Z</time>
      </trkpt>
      <trkpt lat="56.855764026317" lon="14.804885932284">
        <ele>167</ele>
        <time>2019-11-23T06:49:03Z</time>
      </trkpt>
      <trkpt lat="56.855745837594" lon="14.804502460359">
        <ele>167</ele>
        <time>2019-11-23T06:49:11Z</time>
      </trkpt>
      <trkpt lat="56.855803085971" lon="14.804153102767">
        <ele>167.2</ele>
        <time>2019-11-23T06:49:20Z</time>
      </trkpt>
      <trkpt lat="56.855929652661" lon="14.803886977442">
        <ele>167.6</ele>
        <time>2019-11-23T06:49:28Z</time>
      </trkpt>
      <trkpt lat="56.856054459152" lon="14.803638621745">
        <ele>167.6</ele>
        <time>2019-11-23T06:49:34Z</time>
      </trkpt>
      <trkpt lat="56.85616191511" lon="14.803335699879">
        <ele>167.6</ele>
        <time>2019-11-23T06:49:41Z</time>
      </trkpt>
      <trkpt lat="56.856279932262" lon="14.803024228475">
        <ele>167.4</ele>
        <time>2019-11-23T06:49:48Z</time>
      </trkpt>
      <trkpt lat="56.856338521743" lon="14.802680822032">
        <ele>167.6</ele>
        <time>2019-11-23T06:49:54Z</time>
      </trkpt>
      <trkpt lat="56.856327960549" lon="14.802535228429">
        <ele>167.8</ele>
        <time>2019-11-23T06:49:57Z</time>
      </trkpt>
      <trkpt lat="56.856238777133" lon="14.802225517224">
        <ele>168.4</ele>
        <time>2019-11-23T06:50:04Z</time>
      </trkpt>
      <trkpt lat="56.856196197081" lon="14.802008593652">
        <ele>169.4</ele>
        <time>2019-11-23T06:50:09Z</time>
      </trkpt>
      <trkpt lat="56.856094105539" lon="14.801716400618">
        <ele>169.6</ele>
        <time>2019-11-23T06:50:15Z</time>
      </trkpt>
      <trkpt lat="56.855935855267" lon="14.80155194774">
        <ele>169.8</ele>
        <time>2019-11-23T06:50:21Z</time>
      </trkpt>
      <trkpt lat="56.85574282011" lon="14.801516911398">
        <ele>169.4</ele>
        <time>2019-11-23T06:50:29Z</time>
      </trkpt>
      <trkpt lat="56.855569398599" lon="14.801411802372">
        <ele>168.8</ele>
        <time>2019-11-23T06:50:36Z</time>
      </trkpt>
      <trkpt lat="56.855372675406" lon="14.801307699174">
        <ele>168.4</ele>
        <time>2019-11-23T06:50:44Z</time>
      </trkpt>
      <trkpt lat="56.855181316629" lon="14.801188927651">
        <ele>168.4</ele>
        <time>2019-11-23T06:50:51Z</time>
      </trkpt>
      <trkpt lat="56.855043518193" lon="14.800968818957">
        <ele>168.2</ele>
        <time>2019-11-23T06:50:58Z</time>
      </trkpt>
      <trkpt lat="56.854922399738" lon="14.800807551201">
        <ele>167.2</ele>
        <time>2019-11-23T06:51:03Z</time>
      </trkpt>
      <trkpt lat="56.854747469485" lon="14.800679475769">
        <ele>166.8</ele>
        <time>2019-11-23T06:51:10Z</time>
      </trkpt>
      <trkpt lat="56.854579831485" lon="14.800558022038">
        <ele>166.8</ele>
        <time>2019-11-23T06:51:16Z</time>
      </trkpt>
      <trkpt lat="56.854419821014" lon="14.800363645777">
        <ele>167</ele>
        <time>2019-11-23T06:51:23Z</time>
      </trkpt>
      <trkpt lat="56.854255703412" lon="14.800227104626">
        <ele>167</ele>
        <time>2019-11-23T06:51:30Z</time>
      </trkpt>
      <trkpt lat="56.854107343782" lon="14.80004069117">
        <ele>167.2</ele>
        <time>2019-11-23T06:51:36Z</time>
      </trkpt>
      <trkpt lat="56.853950015519" lon="14.799874142817">
        <ele>167</ele>
        <time>2019-11-23T06:51:43Z</time>
      </trkpt>
      <trkpt lat="56.853785981736" lon="14.799685382429">
        <ele>166.4</ele>
        <time>2019-11-23T06:51:49Z</time>
      </trkpt>
      <trkpt lat="56.853604848877" lon="14.799508859615">
        <ele>166.6</ele>
        <time>2019-11-23T06:51:56Z</time>
      </trkpt>
      <trkpt lat="56.853395552834" lon="14.79939193211">
        <ele>167</ele>
        <time>2019-11-23T06:52:02Z</time>
      </trkpt>
      <trkpt lat="56.85321483907" lon="14.799281542487">
        <ele>166.8</ele>
        <time>2019-11-23T06:52:09Z</time>
      </trkpt>
      <trkpt lat="56.853054409504" lon="14.799073839005">
        <ele>167.2</ele>
        <time>2019-11-23T06:52:17Z</time>
      </trkpt>
      <trkpt lat="56.852886520047" lon="14.798896980915">
        <ele>167.2</ele>
        <time>2019-11-23T06:52:24Z</time>
      </trkpt>
      <trkpt lat="56.852722402445" lon="14.798760020669">
        <ele>166.8</ele>
        <time>2019-11-23T06:52:31Z</time>
      </trkpt>
      <trkpt lat="56.852573204625" lon="14.79857553505">
        <ele>166.8</ele>
        <time>2019-11-23T06:52:38Z</time>
      </trkpt>
      <trkpt lat="56.852404057883" lon="14.798358946754">
        <ele>167</ele>
        <time>2019-11-23T06:52:45Z</time>
      </trkpt>
      <trkpt lat="56.852240191738" lon="14.798199103921">
        <ele>167.2</ele>
        <time>2019-11-23T06:52:52Z</time>
      </trkpt>
      <trkpt lat="56.852065596761" lon="14.798061221666">
        <ele>167.4</ele>
        <time>2019-11-23T06:52:58Z</time>
      </trkpt>
      <trkpt lat="56.851890750327" lon="14.797963237255">
        <ele>166.8</ele>
        <time>2019-11-23T06:53:05Z</time>
      </trkpt>
      <trkpt lat="56.851702995767" lon="14.797855362202">
        <ele>166.6</ele>
        <time>2019-11-23T06:53:11Z</time>
      </trkpt>
      <trkpt lat="56.85150660785" lon="14.797765927329">
        <ele>166.6</ele>
        <time>2019-11-23T06:53:18Z</time>
      </trkpt>
      <trkpt lat="56.851315668168" lon="14.79771219935">
        <ele>166.8</ele>
        <time>2019-11-23T06:53:25Z</time>
      </trkpt>
      <trkpt lat="56.85111936407" lon="14.797673139696">
        <ele>166.8</ele>
        <time>2019-11-23T06:53:31Z</time>
      </trkpt>
      <trkpt lat="56.850938901763" lon="14.797663249054">
        <ele>166.4</ele>
        <time>2019-11-23T06:53:38Z</time>
      </trkpt>
      <trkpt lat="56.850749051728" lon="14.797650340928">
        <ele>166.6</ele>
        <time>2019-11-23T06:53:44Z</time>
      </trkpt>
      <trkpt lat="56.850551490345" lon="14.797657633181">
        <ele>166.4</ele>
        <time>2019-11-23T06:53:51Z</time>
      </trkpt>
      <trkpt lat="56.850475969426" lon="14.79765604062">
        <ele>166.2</ele>
        <time>2019-11-23T06:53:54Z</time>
      </trkpt>
      <trkpt lat="56.850287544314" lon="14.797583201909">
        <ele>166.4</ele>
        <time>2019-11-23T06:54:00Z</time>
      </trkpt>
      <trkpt lat="56.850101549953" lon="14.797494353769">
        <ele>166.6</ele>
        <time>2019-11-23T06:54:07Z</time>
      </trkpt>
      <trkpt lat="56.849914130669" lon="14.797466525861">
        <ele>166.6</ele>
        <time>2019-11-23T06:54:13Z</time>
      </trkpt>
      <trkpt lat="56.849737607855" lon="14.797394944435">
        <ele>166.8</ele>
        <time>2019-11-23T06:54:20Z</time>
      </trkpt>
      <trkpt lat="56.849679772745" lon="14.797323111552">
        <ele>167.2</ele>
        <time>2019-11-23T06:54:23Z</time>
      </trkpt>
      <trkpt lat="56.849517750618" lon="14.797151617878">
        <ele>167.2</ele>
        <time>2019-11-23T06:54:29Z</time>
      </trkpt>
      <trkpt lat="56.849341982175" lon="14.79700309061">
        <ele>166.4</ele>
        <time>2019-11-23T06:54:36Z</time>
      </trkpt>
      <trkpt lat="56.849192784355" lon="14.796939891084">
        <ele>166.2</ele>
        <time>2019-11-23T06:54:41Z</time>
      </trkpt>
      <trkpt lat="56.849009891297" lon="14.79690586057">
        <ele>166.4</ele>
        <time>2019-11-23T06:54:47Z</time>
      </trkpt>
      <trkpt lat="56.848831189189" lon="14.796841403759">
        <ele>166.2</ele>
        <time>2019-11-23T06:54:53Z</time>
      </trkpt>
      <trkpt lat="56.84863748348" lon="14.796835284972">
        <ele>166.6</ele>
        <time>2019-11-23T06:55:00Z</time>
      </trkpt>
      <trkpt lat="56.848452494947" lon="14.796817682982">
        <ele>167</ele>
        <time>2019-11-23T06:55:07Z</time>
      </trkpt>
      <trkpt lat="56.848392983457" lon="14.796763787365">
        <ele>167.2</ele>
        <time>2019-11-23T06:55:09Z</time>
      </trkpt>
      <trkpt lat="56.848208833114" lon="14.796603525437">
        <ele>167.6</ele>
        <time>2019-11-23T06:55:16Z</time>
      </trkpt>
      <trkpt lat="56.848016636147" lon="14.796487184665">
        <ele>168</ele>
        <time>2019-11-23T06:55:24Z</time>
      </trkpt>
      <trkpt lat="56.847968943136" lon="14.79646245806">
        <ele>168.4</ele>
        <time>2019-11-23T06:55:26Z</time>
      </trkpt>
      <trkpt lat="56.847796192177" lon="14.796369838065">
        <ele>168.6</ele>
        <time>2019-11-23T06:55:31Z</time>
      </trkpt>
      <trkpt lat="56.847627632168" lon="14.796178646926">
        <ele>168.8</ele>
        <time>2019-11-23T06:55:38Z</time>
      </trkpt>
      <trkpt lat="56.847478434348" lon="14.795982342828">
        <ele>168.4</ele>
        <time>2019-11-23T06:55:44Z</time>
      </trkpt>
      <trkpt lat="56.847325129397" lon="14.795792576612">
        <ele>168.6</ele>
        <time>2019-11-23T06:55:51Z</time>
      </trkpt>
      <trkpt lat="56.847144164176" lon="14.795650419588">
        <ele>169.2</ele>
        <time>2019-11-23T06:55:58Z</time>
      </trkpt>
      <trkpt lat="56.846978286375" lon="14.795521505966">
        <ele>169.2</ele>
        <time>2019-11-23T06:56:04Z</time>
      </trkpt>
      <trkpt lat="56.846807798529" lon="14.795409272325">
        <ele>168.2</ele>
        <time>2019-11-23T06:56:10Z</time>
      </trkpt>
      <trkpt lat="56.846608476947" lon="14.79536023821">
        <ele>168</ele>
        <time>2019-11-23T06:56:17Z</time>
      </trkpt>
      <trkpt lat="56.846413430134" lon="14.795396364199">
        <ele>168.8</ele>
        <time>2019-11-23T06:56:23Z</time>
      </trkpt>
      <trkpt lat="56.846293485145" lon="14.795426539039">
        <ele>169.4</ele>
        <time>2019-11-23T06:56:27Z</time>
      </trkpt>
      <trkpt lat="56.846143365316" lon="14.795399549321">
        <ele>170.4</ele>
        <time>2019-11-23T06:56:33Z</time>
      </trkpt>
      <trkpt lat="56.845967093959" lon="14.795269797509">
        <ele>170.6</ele>
        <time>2019-11-23T06:56:40Z</time>
      </trkpt>
      <trkpt lat="56.845762659418" lon="14.79524875894">
        <ele>169.6</ele>
        <time>2019-11-23T06:56:47Z</time>
      </trkpt>
      <trkpt lat="56.845735166786" lon="14.795244819447">
        <ele>169.4</ele>
        <time>2019-11-23T06:56:48Z</time>
      </trkpt>
      <trkpt lat="56.845555961764" lon="14.79533006337">
        <ele>169.8</ele>
        <time>2019-11-23T06:56:55Z</time>
      </trkpt>
      <trkpt lat="56.845357813648" lon="14.79537532563">
        <ele>170.4</ele>
        <time>2019-11-23T06:57:03Z</time>
      </trkpt>
      <trkpt lat="56.845313305759" lon="14.795389826317">
        <ele>170.6</ele>
        <time>2019-11-23T06:57:05Z</time>
      </trkpt>
      <trkpt lat="56.845127814312" lon="14.795455205137">
        <ele>171.4</ele>
        <time>2019-11-23T06:57:12Z</time>
      </trkpt>
      <trkpt lat="56.845078193464" lon="14.795479847923">
        <ele>171.6</ele>
        <time>2019-11-23T06:57:14Z</time>
      </trkpt>
      <trkpt lat="56.844874680932" lon="14.795550926435">
        <ele>172</ele>
        <time>2019-11-23T06:57:22Z</time>
      </trkpt>
      <trkpt lat="56.844690865865" lon="14.795590572822">
        <ele>172.4</ele>
        <time>2019-11-23T06:57:29Z</time>
      </trkpt>
      <trkpt lat="56.844647615261" lon="14.795589986089">
        <ele>172.6</ele>
        <time>2019-11-23T06:57:31Z</time>
      </trkpt>
      <trkpt lat="56.844445192376" lon="14.795522092699">
        <ele>172.6</ele>
        <time>2019-11-23T06:57:39Z</time>
      </trkpt>
      <trkpt lat="56.844249642649" lon="14.795429891799">
        <ele>171.6</ele>
        <time>2019-11-23T06:57:47Z</time>
      </trkpt>
      <trkpt lat="56.844224916044" lon="14.795428634514">
        <ele>171.6</ele>
        <time>2019-11-23T06:57:48Z</time>
      </trkpt>
      <trkpt lat="56.844041771529" lon="14.795374403621">
        <ele>171.2</ele>
        <time>2019-11-23T06:57:54Z</time>
      </trkpt>
      <trkpt lat="56.843863823792" lon="14.795328806085">
        <ele>171.4</ele>
        <time>2019-11-23T06:58:00Z</time>
      </trkpt>
      <trkpt lat="56.843672297377" lon="14.795347749179">
        <ele>171</ele>
        <time>2019-11-23T06:58:06Z</time>
      </trkpt>
      <trkpt lat="56.843487895577" lon="14.79536778192">
        <ele>171.2</ele>
        <time>2019-11-23T06:58:13Z</time>
      </trkpt>
      <trkpt lat="56.843319335568" lon="14.795235264081">
        <ele>171</ele>
        <time>2019-11-23T06:58:21Z</time>
      </trkpt>
      <trkpt lat="56.84314147165" lon="14.795176842238">
        <ele>170.8</ele>
        <time>2019-11-23T06:58:27Z</time>
      </trkpt>
      <trkpt lat="56.842958578592" lon="14.795100734586">
        <ele>171.2</ele>
        <time>2019-11-23T06:58:33Z</time>
      </trkpt>
      <trkpt lat="56.842842154001" lon="14.79484391317">
        <ele>171.2</ele>
        <time>2019-11-23T06:58:40Z</time>
      </trkpt>
      <trkpt lat="56.842785492357" lon="14.794612237454">
        <ele>170.4</ele>
        <time>2019-11-23T06:58:46Z</time>
      </trkpt>
      <trkpt lat="56.842653812708" lon="14.794355667495">
        <ele>169.8</ele>
        <time>2019-11-23T06:58:52Z</time>
      </trkpt>
      <trkpt lat="56.842476284066" lon="14.79415156823">
        <ele>169.4</ele>
        <time>2019-11-23T06:58:59Z</time>
      </trkpt>
      <trkpt lat="56.842341922209" lon="14.793864152879">
        <ele>168.8</ele>
        <time>2019-11-23T06:59:06Z</time>
      </trkpt>
      <trkpt lat="56.842276208113" lon="14.793529128336">
        <ele>168.6</ele>
        <time>2019-11-23T06:59:14Z</time>
      </trkpt>
      <trkpt lat="56.842307807876" lon="14.793198378562">
        <ele>168</ele>
        <time>2019-11-23T06:59:21Z</time>
      </trkpt>
      <trkpt lat="56.842226838722" lon="14.792887996805">
        <ele>167.4</ele>
        <time>2019-11-23T06:59:28Z</time>
      </trkpt>
      <trkpt lat="56.842052830478" lon="14.792745672143">
        <ele>167.4</ele>
        <time>2019-11-23T06:59:34Z</time>
      </trkpt>
      <trkpt lat="56.841868428678" lon="14.792661434048">
        <ele>167.2</ele>
        <time>2019-11-23T06:59:40Z</time>
      </trkpt>
      <trkpt lat="56.841708753483" lon="14.792584488206">
        <ele>167</ele>
        <time>2019-11-23T06:59:46Z</time>
      </trkpt>
      <trkpt lat="56.841518316715" lon="14.792524222345">
        <ele>167.2</ele>
        <time>2019-11-23T06:59:52Z</time>
      </trkpt>
      <trkpt lat="56.841322683169" lon="14.792401595148">
        <ele>167.2</ele>
        <time>2019-11-23T07:00:00Z</time>
      </trkpt>
      <trkpt lat="56.841131072935" lon="14.792278632675">
        <ele>167.4</ele>
        <time>2019-11-23T07:00:07Z</time>
      </trkpt>
      <trkpt lat="56.840954717759" lon="14.792167321043">
        <ele>167.4</ele>
        <time>2019-11-23T07:00:14Z</time>
      </trkpt>
      <trkpt lat="56.84079370146" lon="14.79201837468">
        <ele>167.6</ele>
        <time>2019-11-23T07:00:21Z</time>
      </trkpt>
      <trkpt lat="56.840586249435" lon="14.791956432439">
        <ele>167.4</ele>
        <time>2019-11-23T07:00:28Z</time>
      </trkpt>
      <trkpt lat="56.840399668341" lon="14.791834224337">
        <ele>167.2</ele>
        <time>2019-11-23T07:00:35Z</time>
      </trkpt>
      <trkpt lat="56.840209650668" lon="14.791718218841">
        <ele>167.4</ele>
        <time>2019-11-23T07:00:41Z</time>
      </trkpt>
      <trkpt lat="56.840014268579" lon="14.791612187806">
        <ele>168</ele>
        <time>2019-11-23T07:00:48Z</time>
      </trkpt>
      <trkpt lat="56.839990799259" lon="14.791601961888">
        <ele>168.2</ele>
        <time>2019-11-23T07:00:49Z</time>
      </trkpt>
      <trkpt lat="56.839854677203" lon="14.791506156771">
        <ele>169.2</ele>
        <time>2019-11-23T07:00:55Z</time>
      </trkpt>
      <trkpt lat="56.839835315014" lon="14.791506324409">
        <ele>169.6</ele>
        <time>2019-11-23T07:00:56Z</time>
      </trkpt>
      <trkpt lat="56.839745209589" lon="14.791669771459">
        <ele>170.4</ele>
        <time>2019-11-23T07:01:01Z</time>
      </trkpt>
      <trkpt lat="56.839665413901" lon="14.791957941181">
        <ele>171.4</ele>
        <time>2019-11-23T07:01:08Z</time>
      </trkpt>
      <trkpt lat="56.839606321506" lon="14.792283661815">
        <ele>172</ele>
        <time>2019-11-23T07:01:15Z</time>
      </trkpt>
      <trkpt lat="56.839531890234" lon="14.792619021634">
        <ele>172</ele>
        <time>2019-11-23T07:01:22Z</time>
      </trkpt>
      <trkpt lat="56.839426026837" lon="14.792926469726">
        <ele>172.4</ele>
        <time>2019-11-23T07:01:29Z</time>
      </trkpt>
      <trkpt lat="56.839366096252" lon="14.793233247266">
        <ele>171.6</ele>
        <time>2019-11-23T07:01:36Z</time>
      </trkpt>
      <trkpt lat="56.839308764056" lon="14.793624430539">
        <ele>171.6</ele>
        <time>2019-11-23T07:01:42Z</time>
      </trkpt>
      <trkpt lat="56.839260484312" lon="14.793946127861">
        <ele>171.4</ele>
        <time>2019-11-23T07:01:48Z</time>
      </trkpt>
      <trkpt lat="56.83921958064" lon="14.79427394397">
        <ele>170.6</ele>
        <time>2019-11-23T07:01:55Z</time>
      </trkpt>
      <trkpt lat="56.839181107719" lon="14.794608046504">
        <ele>171</ele>
        <time>2019-11-23T07:02:02Z</time>
      </trkpt>
      <trkpt lat="56.839120087487" lon="14.7949419814">
        <ele>170.8</ele>
        <time>2019-11-23T07:02:09Z</time>
      </trkpt>
      <trkpt lat="56.838946582157" lon="14.794946591445">
        <ele>171</ele>
        <time>2019-11-23T07:02:15Z</time>
      </trkpt>
      <trkpt lat="56.83874935605" lon="14.794826897913">
        <ele>171</ele>
        <time>2019-11-23T07:02:22Z</time>
      </trkpt>
      <trkpt lat="56.838552884314" lon="14.794704689811">
        <ele>170.6</ele>
        <time>2019-11-23T07:02:29Z</time>
      </trkpt>
      <trkpt lat="56.838361357899" lon="14.794594300188">
        <ele>171</ele>
        <time>2019-11-23T07:02:36Z</time>
      </trkpt>
      <trkpt lat="56.838160276118" lon="14.794544511702">
        <ele>171</ele>
        <time>2019-11-23T07:02:43Z</time>
      </trkpt>
      <trkpt lat="56.83795894288" lon="14.794555324353">
        <ele>171</ele>
        <time>2019-11-23T07:02:50Z</time>
      </trkpt>
      <trkpt lat="56.837763896067" lon="14.794540656028">
        <ele>171</ele>
        <time>2019-11-23T07:02:57Z</time>
      </trkpt>
      <trkpt lat="56.837575722412" lon="14.794523976047">
        <ele>171</ele>
        <time>2019-11-23T07:03:04Z</time>
      </trkpt>
      <trkpt lat="56.837373970079" lon="14.79452121002">
        <ele>170.8</ele>
        <time>2019-11-23T07:03:11Z</time>
      </trkpt>
      <trkpt lat="56.837342621773" lon="14.794521293839">
        <ele>170.8</ele>
        <time>2019-11-23T07:03:12Z</time>
      </trkpt>
      <trkpt lat="56.837158974344" lon="14.794532357947">
        <ele>170.8</ele>
        <time>2019-11-23T07:03:18Z</time>
      </trkpt>
      <trkpt lat="56.83696065859" lon="14.794538392915">
        <ele>171.2</ele>
        <time>2019-11-23T07:03:25Z</time>
      </trkpt>
      <trkpt lat="56.836767288157" lon="14.794530262472">
        <ele>171.4</ele>
        <time>2019-11-23T07:03:32Z</time>
      </trkpt>
      <trkpt lat="56.83657509119" lon="14.794521293839">
        <ele>171.8</ele>
        <time>2019-11-23T07:03:39Z</time>
      </trkpt>
      <trkpt lat="56.836379206187" lon="14.794519366002">
        <ele>171.2</ele>
        <time>2019-11-23T07:03:46Z</time>
      </trkpt>
      <trkpt lat="56.836184578469" lon="14.794519785097">
        <ele>171.4</ele>
        <time>2019-11-23T07:03:53Z</time>
      </trkpt>
      <trkpt lat="56.835988442009" lon="14.794530346291">
        <ele>171.4</ele>
        <time>2019-11-23T07:04:00Z</time>
      </trkpt>
      <trkpt lat="56.835794401024" lon="14.794514420681">
        <ele>171.6</ele>
        <time>2019-11-23T07:04:07Z</time>
      </trkpt>
      <trkpt lat="56.835633217087" lon="14.794310908149">
        <ele>171.6</ele>
        <time>2019-11-23T07:04:15Z</time>
      </trkpt>
      <trkpt lat="56.835522408369" lon="14.793989378465">
        <ele>171.4</ele>
        <time>2019-11-23T07:04:23Z</time>
      </trkpt>
      <trkpt lat="56.835409671814" lon="14.793725600072">
        <ele>171.4</ele>
        <time>2019-11-23T07:04:29Z</time>
      </trkpt>
      <trkpt lat="56.835228706593" lon="14.793616300096">
        <ele>170.8</ele>
        <time>2019-11-23T07:04:35Z</time>
      </trkpt>
      <trkpt lat="56.835111779088" lon="14.793757535111">
        <ele>170.4</ele>
        <time>2019-11-23T07:04:40Z</time>
      </trkpt>
      <trkpt lat="56.835011615383" lon="14.79404427991">
        <ele>170.2</ele>
        <time>2019-11-23T07:04:46Z</time>
      </trkpt>
      <trkpt lat="56.834884964874" lon="14.794293725254">
        <ele>171</ele>
        <time>2019-11-23T07:04:52Z</time>
      </trkpt>
      <trkpt lat="56.83474280785" lon="14.794497824519">
        <ele>170.8</ele>
        <time>2019-11-23T07:04:58Z</time>
      </trkpt>
      <trkpt lat="56.834563770466" lon="14.794679544111">
        <ele>171.2</ele>
        <time>2019-11-23T07:05:05Z</time>
      </trkpt>
      <trkpt lat="56.834535942558" lon="14.794709970408">
        <ele>171.4</ele>
        <time>2019-11-23T07:05:06Z</time>
      </trkpt>
      <trkpt lat="56.834371573499" lon="14.794869310327">
        <ele>171.4</ele>
        <time>2019-11-23T07:05:12Z</time>
      </trkpt>
      <trkpt lat="56.834203264947" lon="14.795020687441">
        <ele>170.6</ele>
        <time>2019-11-23T07:05:18Z</time>
      </trkpt>
      <trkpt lat="56.834175185582" lon="14.795044072942">
        <ele>170.2</ele>
        <time>2019-11-23T07:05:19Z</time>
      </trkpt>
      <trkpt lat="56.834000925881" lon="14.795217326815">
        <ele>169.6</ele>
        <time>2019-11-23T07:05:26Z</time>
      </trkpt>
      <trkpt lat="56.833854829364" lon="14.79541891151">
        <ele>169.8</ele>
        <time>2019-11-23T07:05:32Z</time>
      </trkpt>
      <trkpt lat="56.833704793354" lon="14.795628878105">
        <ele>170</ele>
        <time>2019-11-23T07:05:38Z</time>
      </trkpt>
      <trkpt lat="56.833531958576" lon="14.795806909661">
        <ele>170</ele>
        <time>2019-11-23T07:05:45Z</time>
      </trkpt>
      <trkpt lat="56.833505974686" lon="14.795796851381">
        <ele>170</ele>
        <time>2019-11-23T07:05:46Z</time>
      </trkpt>
      <trkpt lat="56.833408660827" lon="14.795514129894">
        <ele>169.6</ele>
        <time>2019-11-23T07:05:52Z</time>
      </trkpt>
      <trkpt lat="56.8333304577" lon="14.795200730653">
        <ele>169.2</ele>
        <time>2019-11-23T07:05:58Z</time>
      </trkpt>
      <trkpt lat="56.833300953412" lon="14.795096627455">
        <ele>169.2</ele>
        <time>2019-11-23T07:06:00Z</time>
      </trkpt>
      <trkpt lat="56.833202382268" lon="14.794765374767">
        <ele>168.8</ele>
        <time>2019-11-23T07:06:07Z</time>
      </trkpt>
      <trkpt lat="56.833126609892" lon="14.794439821771">
        <ele>168.4</ele>
        <time>2019-11-23T07:06:14Z</time>
      </trkpt>
      <trkpt lat="56.833100039269" lon="14.794063055366">
        <ele>169.2</ele>
        <time>2019-11-23T07:06:21Z</time>
      </trkpt>
      <trkpt lat="56.833195341472" lon="14.793738592017">
        <ele>169</ele>
        <time>2019-11-23T07:06:28Z</time>
      </trkpt>
      <trkpt lat="56.833283351422" lon="14.793402310189">
        <ele>168.8</ele>
        <time>2019-11-23T07:06:35Z</time>
      </trkpt>
      <trkpt lat="56.833357447418" lon="14.793060328669">
        <ele>169.2</ele>
        <time>2019-11-23T07:06:42Z</time>
      </trkpt>
      <trkpt lat="56.833437410744" lon="14.792761178658">
        <ele>168.8</ele>
        <time>2019-11-23T07:06:48Z</time>
      </trkpt>
      <trkpt lat="56.833493485655" lon="14.79256655094">
        <ele>168.2</ele>
        <time>2019-11-23T07:06:51Z</time>
      </trkpt>
      <trkpt lat="56.833605467839" lon="14.792276956295">
        <ele>167.2</ele>
        <time>2019-11-23T07:06:57Z</time>
      </trkpt>
      <trkpt lat="56.833714600177" lon="14.791990379134">
        <ele>167</ele>
        <time>2019-11-23T07:07:04Z</time>
      </trkpt>
      <trkpt lat="56.833827923465" lon="14.791727774207">
        <ele>167</ele>
        <time>2019-11-23T07:07:11Z</time>
      </trkpt>
      <trkpt lat="56.833968655566" lon="14.791465085461">
        <ele>167</ele>
        <time>2019-11-23T07:07:18Z</time>
      </trkpt>
      <trkpt lat="56.834082397949" lon="14.791150177478">
        <ele>167.2</ele>
        <time>2019-11-23T07:07:25Z</time>
      </trkpt>
      <trkpt lat="56.834077871723" lon="14.790802077171">
        <ele>167.4</ele>
        <time>2019-11-23T07:07:32Z</time>
      </trkpt>
      <trkpt lat="56.833981815149" lon="14.790472584682">
        <ele>166.8</ele>
        <time>2019-11-23T07:07:39Z</time>
      </trkpt>
      <trkpt lat="56.833889027516" lon="14.790188019177">
        <ele>166.8</ele>
        <time>2019-11-23T07:07:45Z</time>
      </trkpt>
      <trkpt lat="56.833823564877" lon="14.789838745404">
        <ele>166.8</ele>
        <time>2019-11-23T07:07:52Z</time>
      </trkpt>
      <trkpt lat="56.833822223773" lon="14.789473210745">
        <ele>166.8</ele>
        <time>2019-11-23T07:07:59Z</time>
      </trkpt>
      <trkpt lat="56.833862037798" lon="14.789109520104">
        <ele>167.2</ele>
        <time>2019-11-23T07:08:06Z</time>
      </trkpt>
      <trkpt lat="56.834055575869" lon="14.788986473812">
        <ele>167</ele>
        <time>2019-11-23T07:08:13Z</time>
      </trkpt>
      <trkpt lat="56.834230925217" lon="14.788921849363">
        <ele>167</ele>
        <time>2019-11-23T07:08:19Z</time>
      </trkpt>
      <trkpt lat="56.834400658692" lon="14.788806514419">
        <ele>167</ele>
        <time>2019-11-23T07:08:25Z</time>
      </trkpt>
      <trkpt lat="56.834587575062" lon="14.788625297741">
        <ele>167</ele>
        <time>2019-11-23T07:08:32Z</time>
      </trkpt>
      <trkpt lat="56.834709112612" lon="14.788362944271">
        <ele>166.8</ele>
        <time>2019-11-23T07:08:38Z</time>
      </trkpt>
      <trkpt lat="56.834756973261" lon="14.788042923329">
        <ele>166.4</ele>
        <time>2019-11-23T07:08:44Z</time>
      </trkpt>
      <trkpt lat="56.834783460065" lon="14.787683004543">
        <ele>166.6</ele>
        <time>2019-11-23T07:08:51Z</time>
      </trkpt>
      <trkpt lat="56.834810449783" lon="14.787298945885">
        <ele>166.2</ele>
        <time>2019-11-23T07:08:58Z</time>
      </trkpt>
      <trkpt lat="56.834841295175" lon="14.786938775642">
        <ele>166.4</ele>
        <time>2019-11-23T07:09:05Z</time>
      </trkpt>
      <trkpt lat="56.83487105092" lon="14.786582377254">
        <ele>166.2</ele>
        <time>2019-11-23T07:09:12Z</time>
      </trkpt>
      <trkpt lat="56.834876247698" lon="14.786535187157">
        <ele>166</ele>
        <time>2019-11-23T07:09:13Z</time>
      </trkpt>
      <trkpt lat="56.834917570465" lon="14.786174094905">
        <ele>166.6</ele>
        <time>2019-11-23T07:09:20Z</time>
      </trkpt>
      <trkpt lat="56.834966772218" lon="14.785819708173">
        <ele>166.6</ele>
        <time>2019-11-23T07:09:27Z</time>
      </trkpt>
      <trkpt lat="56.834987140235" lon="14.785456436627">
        <ele>166.6</ele>
        <time>2019-11-23T07:09:34Z</time>
      </trkpt>
      <trkpt lat="56.83499342666" lon="14.785098948592">
        <ele>166.6</ele>
        <time>2019-11-23T07:09:41Z</time>
      </trkpt>
      <trkpt lat="56.834876750612" lon="14.784856292587">
        <ele>167</ele>
        <time>2019-11-23T07:09:49Z</time>
      </trkpt>
      <trkpt lat="56.834727636611" lon="14.784616905523">
        <ele>166.8</ele>
        <time>2019-11-23T07:09:57Z</time>
      </trkpt>
      <trkpt lat="56.834543234811" lon="14.784565273019">
        <ele>166.8</ele>
        <time>2019-11-23T07:10:04Z</time>
      </trkpt>
      <trkpt lat="56.834376602639" lon="14.784710782803">
        <ele>166.8</ele>
        <time>2019-11-23T07:10:12Z</time>
      </trkpt>
      <trkpt lat="56.834278031495" lon="14.784803821893">
        <ele>167.2</ele>
        <time>2019-11-23T07:10:16Z</time>
      </trkpt>
      <trkpt lat="56.834089690202" lon="14.784819831322">
        <ele>167.4</ele>
        <time>2019-11-23T07:10:23Z</time>
      </trkpt>
      <trkpt lat="56.83397418762" lon="14.784706759491">
        <ele>168.2</ele>
        <time>2019-11-23T07:10:28Z</time>
      </trkpt>
      <trkpt lat="56.833900929814" lon="14.78456183644">
        <ele>169.4</ele>
        <time>2019-11-23T07:10:32Z</time>
      </trkpt>
      <trkpt lat="56.83383420989" lon="14.784391180956">
        <ele>170.4</ele>
        <time>2019-11-23T07:10:36Z</time>
      </trkpt>
      <trkpt lat="56.833756844953" lon="14.784115835541">
        <ele>171.4</ele>
        <time>2019-11-23T07:10:42Z</time>
      </trkpt>
      <trkpt lat="56.833698590748" lon="14.783888434594">
        <ele>172.6</ele>
        <time>2019-11-23T07:10:47Z</time>
      </trkpt>
      <trkpt lat="56.833646790606" lon="14.783579310122">
        <ele>174</ele>
        <time>2019-11-23T07:10:54Z</time>
      </trkpt>
      <trkpt lat="56.833676546351" lon="14.7832324671">
        <ele>173.8</ele>
        <time>2019-11-23T07:11:01Z</time>
      </trkpt>
      <trkpt lat="56.833748043958" lon="14.782905489181">
        <ele>174</ele>
        <time>2019-11-23T07:11:08Z</time>
      </trkpt>
      <trkpt lat="56.833823481058" lon="14.78258035528">
        <ele>174.4</ele>
        <time>2019-11-23T07:11:15Z</time>
      </trkpt>
      <trkpt lat="56.833884668928" lon="14.78221238987">
        <ele>173.8</ele>
        <time>2019-11-23T07:11:22Z</time>
      </trkpt>
      <trkpt lat="56.833949377196" lon="14.781854398921">
        <ele>173.2</ele>
        <time>2019-11-23T07:11:29Z</time>
      </trkpt>
      <trkpt lat="56.833975780181" lon="14.781756665967">
        <ele>172.8</ele>
        <time>2019-11-23T07:11:31Z</time>
      </trkpt>
      <trkpt lat="56.834017438224" lon="14.781563966086">
        <ele>171.6</ele>
        <time>2019-11-23T07:11:35Z</time>
      </trkpt>
      <trkpt lat="56.834057587525" lon="14.78135743607">
        <ele>170.2</ele>
        <time>2019-11-23T07:11:39Z</time>
      </trkpt>
      <trkpt lat="56.834114081531" lon="14.781073373479">
        <ele>169.2</ele>
        <time>2019-11-23T07:11:45Z</time>
      </trkpt>
      <trkpt lat="56.834174598849" lon="14.780736085823">
        <ele>169</ele>
        <time>2019-11-23T07:11:52Z</time>
      </trkpt>
      <trkpt lat="56.834246096456" lon="14.780396115959">
        <ele>169.6</ele>
        <time>2019-11-23T07:11:59Z</time>
      </trkpt>
      <trkpt lat="56.834308373973" lon="14.780079950691">
        <ele>170</ele>
        <time>2019-11-23T07:12:05Z</time>
      </trkpt>
      <trkpt lat="56.834328909628" lon="14.779975344579">
        <ele>170.4</ele>
        <time>2019-11-23T07:12:07Z</time>
      </trkpt>
      <trkpt lat="56.834392612068" lon="14.779628333919">
        <ele>171.4</ele>
        <time>2019-11-23T07:12:14Z</time>
      </trkpt>
      <trkpt lat="56.83439914995" lon="14.779580557089">
        <ele>171.6</ele>
        <time>2019-11-23T07:12:15Z</time>
      </trkpt>
      <trkpt lat="56.834427732229" lon="14.779224661615">
        <ele>172.2</ele>
        <time>2019-11-23T07:12:22Z</time>
      </trkpt>
      <trkpt lat="56.834433683378" lon="14.778853846359">
        <ele>172</ele>
        <time>2019-11-23T07:12:29Z</time>
      </trkpt>
      <trkpt lat="56.834497804913" lon="14.778548074647">
        <ele>171</ele>
        <time>2019-11-23T07:12:35Z</time>
      </trkpt>
      <trkpt lat="56.83460534469" lon="14.778378089715">
        <ele>170.4</ele>
        <time>2019-11-23T07:12:40Z</time>
      </trkpt>
      <trkpt lat="56.834772815052" lon="14.778196118666">
        <ele>170.6</ele>
        <time>2019-11-23T07:12:47Z</time>
      </trkpt>
      <trkpt lat="56.834928550754" lon="14.778007945011">
        <ele>170.6</ele>
        <time>2019-11-23T07:12:54Z</time>
      </trkpt>
      <trkpt lat="56.835067438837" lon="14.777777107485">
        <ele>170.2</ele>
        <time>2019-11-23T07:13:01Z</time>
      </trkpt>
      <trkpt lat="56.835216552838" lon="14.777509892513">
        <ele>170</ele>
        <time>2019-11-23T07:13:08Z</time>
      </trkpt>
      <trkpt lat="56.835380418983" lon="14.777302524307">
        <ele>169.6</ele>
        <time>2019-11-23T07:13:15Z</time>
      </trkpt>
      <trkpt lat="56.835501621257" lon="14.77722599756">
        <ele>169.4</ele>
        <time>2019-11-23T07:13:20Z</time>
      </trkpt>
      <trkpt lat="56.835700439925" lon="14.777187859915">
        <ele>168.6</ele>
        <time>2019-11-23T07:13:27Z</time>
      </trkpt>
      <trkpt lat="56.835760873424" lon="14.777202695878">
        <ele>168.4</ele>
        <time>2019-11-23T07:13:29Z</time>
      </trkpt>
      <trkpt lat="56.835943598844" lon="14.777357174295">
        <ele>168</ele>
        <time>2019-11-23T07:13:37Z</time>
      </trkpt>
      <trkpt lat="56.836141579322" lon="14.777481310234">
        <ele>167.6</ele>
        <time>2019-11-23T07:13:44Z</time>
      </trkpt>
      <trkpt lat="56.836315084652" lon="14.777346445463">
        <ele>167.6</ele>
        <time>2019-11-23T07:13:50Z</time>
      </trkpt>
      <trkpt lat="56.836485572498" lon="14.777175287065">
        <ele>167.8</ele>
        <time>2019-11-23T07:13:57Z</time>
      </trkpt>
      <trkpt lat="56.836637787802" lon="14.776994908577">
        <ele>167.8</ele>
        <time>2019-11-23T07:14:03Z</time>
      </trkpt>
      <trkpt lat="56.836758319524" lon="14.7768789869">
        <ele>167.2</ele>
        <time>2019-11-23T07:14:08Z</time>
      </trkpt>
      <trkpt lat="56.836949007749" lon="14.776778152643">
        <ele>166.4</ele>
        <time>2019-11-23T07:14:15Z</time>
      </trkpt>
      <trkpt lat="56.837121674889" lon="14.776667930658">
        <ele>166.4</ele>
        <time>2019-11-23T07:14:21Z</time>
      </trkpt>
      <trkpt lat="56.837235836367" lon="14.776519822485">
        <ele>166.2</ele>
        <time>2019-11-23T07:14:27Z</time>
      </trkpt>
      <trkpt lat="56.83739903196" lon="14.776340952739">
        <ele>166.4</ele>
        <time>2019-11-23T07:14:34Z</time>
      </trkpt>
      <trkpt lat="56.837552839825" lon="14.776124364443">
        <ele>166.6</ele>
        <time>2019-11-23T07:14:41Z</time>
      </trkpt>
      <trkpt lat="56.837583014665" lon="14.776032582638">
        <ele>166.4</ele>
        <time>2019-11-23T07:14:43Z</time>
      </trkpt>
      <trkpt lat="56.83760857946" lon="14.775670903653">
        <ele>166.6</ele>
        <time>2019-11-23T07:14:50Z</time>
      </trkpt>
      <trkpt lat="56.837536411301" lon="14.775332861626">
        <ele>166.8</ele>
        <time>2019-11-23T07:14:56Z</time>
      </trkpt>
      <trkpt lat="56.837492154869" lon="14.775006218983">
        <ele>166.6</ele>
        <time>2019-11-23T07:15:02Z</time>
      </trkpt>
      <trkpt lat="56.83752643684" lon="14.774685778946">
        <ele>166.6</ele>
        <time>2019-11-23T07:15:08Z</time>
      </trkpt>
      <trkpt lat="56.837649315494" lon="14.774432729385">
        <ele>166.4</ele>
        <time>2019-11-23T07:15:15Z</time>
      </trkpt>
      <trkpt lat="56.837735732883" lon="14.774123604913">
        <ele>166.4</ele>
        <time>2019-11-23T07:15:22Z</time>
      </trkpt>
      <trkpt lat="56.837746210258" lon="14.773745916499">
        <ele>166.2</ele>
        <time>2019-11-23T07:15:28Z</time>
      </trkpt>
      <trkpt lat="56.837719136721" lon="14.773381471487">
        <ele>166.2</ele>
        <time>2019-11-23T07:15:35Z</time>
      </trkpt>
      <trkpt lat="56.837648477304" lon="14.773074777766">
        <ele>166.8</ele>
        <time>2019-11-23T07:15:41Z</time>
      </trkpt>
      <trkpt lat="56.837561976096" lon="14.772784680207">
        <ele>166.8</ele>
        <time>2019-11-23T07:15:47Z</time>
      </trkpt>
      <trkpt lat="56.837523670813" lon="14.772655263671">
        <ele>167.2</ele>
        <time>2019-11-23T07:15:50Z</time>
      </trkpt>
      <trkpt lat="56.837401211254" lon="14.77249190044">
        <ele>167.6</ele>
        <time>2019-11-23T07:15:55Z</time>
      </trkpt>
      <trkpt lat="56.837395092467" lon="14.772168023824">
        <ele>166.8</ele>
        <time>2019-11-23T07:16:01Z</time>
      </trkpt>
      <trkpt lat="56.837424010022" lon="14.771835513851">
        <ele>166.6</ele>
        <time>2019-11-23T07:16:08Z</time>
      </trkpt>
      <trkpt lat="56.837406659489" lon="14.77147433778">
        <ele>166.8</ele>
        <time>2019-11-23T07:16:16Z</time>
      </trkpt>
      <trkpt lat="56.837347483275" lon="14.771126237473">
        <ele>166.8</ele>
        <time>2019-11-23T07:16:23Z</time>
      </trkpt>
      <trkpt lat="56.837321247928" lon="14.770854999189">
        <ele>166.2</ele>
        <time>2019-11-23T07:16:29Z</time>
      </trkpt>
      <trkpt lat="56.837302388653" lon="14.770457361853">
        <ele>166.4</ele>
        <time>2019-11-23T07:16:36Z</time>
      </trkpt>
      <trkpt lat="56.837314458589" lon="14.770097945981">
        <ele>166.4</ele>
        <time>2019-11-23T07:16:42Z</time>
      </trkpt>
      <trkpt lat="56.837463069676" lon="14.769894433449">
        <ele>166.4</ele>
        <time>2019-11-23T07:16:49Z</time>
      </trkpt>
      <trkpt lat="56.83761277041" lon="14.769654375833">
        <ele>166.8</ele>
        <time>2019-11-23T07:16:57Z</time>
      </trkpt>
      <trkpt lat="56.837730619924" lon="14.769489922955">
        <ele>167.4</ele>
        <time>2019-11-23T07:17:03Z</time>
      </trkpt>
      <trkpt lat="56.837859282089" lon="14.769238130679">
        <ele>168.4</ele>
        <time>2019-11-23T07:17:10Z</time>
      </trkpt>
      <trkpt lat="56.837899599028" lon="14.769204854536">
        <ele>168.6</ele>
        <time>2019-11-23T07:17:11Z</time>
      </trkpt>
      <trkpt lat="56.838051814332" lon="14.769003856574">
        <ele>169</ele>
        <time>2019-11-23T07:17:17Z</time>
      </trkpt>
      <trkpt lat="56.838175447357" lon="14.768860358446">
        <ele>169.6</ele>
        <time>2019-11-23T07:17:22Z</time>
      </trkpt>
      <trkpt lat="56.838323136435" lon="14.768659528122">
        <ele>170.4</ele>
        <time>2019-11-23T07:17:29Z</time>
      </trkpt>
      <trkpt lat="56.838353898008" lon="14.76861191893">
        <ele>170.6</ele>
        <time>2019-11-23T07:17:31Z</time>
      </trkpt>
      <trkpt lat="56.838509885167" lon="14.768441682541">
        <ele>171.2</ele>
        <time>2019-11-23T07:17:39Z</time>
      </trkpt>
      <trkpt lat="56.838693784053" lon="14.76828837759">
        <ele>171.8</ele>
        <time>2019-11-23T07:17:47Z</time>
      </trkpt>
      <trkpt lat="56.838882879717" lon="14.768137587209">
        <ele>172.8</ele>
        <time>2019-11-23T07:17:54Z</time>
      </trkpt>
      <trkpt lat="56.839024952922" lon="14.767987215923">
        <ele>173.8</ele>
        <time>2019-11-23T07:18:01Z</time>
      </trkpt>
      <trkpt lat="56.839153782725" lon="14.767924519311">
        <ele>175</ele>
        <time>2019-11-23T07:18:06Z</time>
      </trkpt>
      <trkpt lat="56.839253694973" lon="14.767862912346">
        <ele>176</ele>
        <time>2019-11-23T07:18:10Z</time>
      </trkpt>
      <trkpt lat="56.839338352163" lon="14.767799964277">
        <ele>177.2</ele>
        <time>2019-11-23T07:18:14Z</time>
      </trkpt>
      <trkpt lat="56.839422841715" lon="14.767724443358">
        <ele>178.4</ele>
        <time>2019-11-23T07:18:18Z</time>
      </trkpt>
      <trkpt lat="56.839546223283" lon="14.767635259942">
        <ele>179.4</ele>
        <time>2019-11-23T07:18:23Z</time>
      </trkpt>
      <trkpt lat="56.839719225699" lon="14.767477512584">
        <ele>180.6</ele>
        <time>2019-11-23T07:18:30Z</time>
      </trkpt>
      <trkpt lat="56.839745712503" lon="14.767450019952">
        <ele>180.6</ele>
        <time>2019-11-23T07:18:31Z</time>
      </trkpt>
      <trkpt lat="56.839931958321" lon="14.767307946747">
        <ele>181.4</ele>
        <time>2019-11-23T07:18:38Z</time>
      </trkpt>
      <trkpt lat="56.840076629915" lon="14.767182972618">
        <ele>181.6</ele>
        <time>2019-11-23T07:18:44Z</time>
      </trkpt>
      <trkpt lat="56.840262875733" lon="14.767086329311">
        <ele>182.2</ele>
        <time>2019-11-23T07:18:51Z</time>
      </trkpt>
      <trkpt lat="56.840435459054" lon="14.767007120356">
        <ele>182.6</ele>
        <time>2019-11-23T07:18:57Z</time>
      </trkpt>
      <trkpt lat="56.840632349885" lon="14.76692799522">
        <ele>183.2</ele>
        <time>2019-11-23T07:19:05Z</time>
      </trkpt>
      <trkpt lat="56.840681551638" lon="14.766882984417">
        <ele>183.8</ele>
        <time>2019-11-23T07:19:07Z</time>
      </trkpt>
      <trkpt lat="56.840800826075" lon="14.76667234727">
        <ele>184.8</ele>
        <time>2019-11-23T07:19:13Z</time>
      </trkpt>
      <trkpt lat="56.840900486866" lon="14.766391637439">
        <ele>185</ele>
        <time>2019-11-23T07:19:20Z</time>
      </trkpt>
      <trkpt lat="56.840997716906" lon="14.766121572621">
        <ele>183.4</ele>
        <time>2019-11-23T07:19:26Z</time>
      </trkpt>
      <trkpt lat="56.841079440431" lon="14.765973548267">
        <ele>181.8</ele>
        <time>2019-11-23T07:19:30Z</time>
      </trkpt>
      <trkpt lat="56.841157140644" lon="14.765902218298">
        <ele>180.4</ele>
        <time>2019-11-23T07:19:33Z</time>
      </trkpt>
      <trkpt lat="56.841229727898" lon="14.765806999914">
        <ele>179</ele>
        <time>2019-11-23T07:19:36Z</time>
      </trkpt>
      <trkpt lat="56.84128571899" lon="14.765753523392">
        <ele>177.8</ele>
        <time>2019-11-23T07:19:38Z</time>
      </trkpt>
      <trkpt lat="56.841389738369" lon="14.765651180393">
        <ele>176.6</ele>
        <time>2019-11-23T07:19:42Z</time>
      </trkpt>
      <trkpt lat="56.841573804893" lon="14.765524278427">
        <ele>176.6</ele>
        <time>2019-11-23T07:19:49Z</time>
      </trkpt>
      <trkpt lat="56.841748483689" lon="14.765356137513">
        <ele>177</ele>
        <time>2019-11-23T07:19:56Z</time>
      </trkpt>
      <trkpt lat="56.841926179969" lon="14.765202245829">
        <ele>177.6</ele>
        <time>2019-11-23T07:20:03Z</time>
      </trkpt>
      <trkpt lat="56.842032630099" lon="14.76512923948">
        <ele>177.6</ele>
        <time>2019-11-23T07:20:07Z</time>
      </trkpt>
      <trkpt lat="56.842203034126" lon="14.764915333392">
        <ele>177.6</ele>
        <time>2019-11-23T07:20:14Z</time>
      </trkpt>
      <trkpt lat="56.842347202806" lon="14.764720370398">
        <ele>176.6</ele>
        <time>2019-11-23T07:20:20Z</time>
      </trkpt>
      <trkpt lat="56.842453150022" lon="14.764542841756">
        <ele>175.6</ele>
        <time>2019-11-23T07:20:25Z</time>
      </trkpt>
      <trkpt lat="56.842543171628" lon="14.76430362233">
        <ele>174.2</ele>
        <time>2019-11-23T07:20:30Z</time>
      </trkpt>
      <trkpt lat="56.842603102213" lon="14.764101115626">
        <ele>173</ele>
        <time>2019-11-23T07:20:34Z</time>
      </trkpt>
      <trkpt lat="56.842655740545" lon="14.763961473172">
        <ele>171.6</ele>
        <time>2019-11-23T07:20:37Z</time>
      </trkpt>
      <trkpt lat="56.842711563999" lon="14.7638199867">
        <ele>170.2</ele>
        <time>2019-11-23T07:20:40Z</time>
      </trkpt>
      <trkpt lat="56.84278859366" lon="14.763644385895">
        <ele>169.2</ele>
        <time>2019-11-23T07:20:44Z</time>
      </trkpt>
      <trkpt lat="56.842966122302" lon="14.76349644536">
        <ele>168.4</ele>
        <time>2019-11-23T07:20:51Z</time>
      </trkpt>
      <trkpt lat="56.843149434455" lon="14.763587724251">
        <ele>169.6</ele>
        <time>2019-11-23T07:20:58Z</time>
      </trkpt>
      <trkpt lat="56.843322017776" lon="14.763628711742">
        <ele>170.2</ele>
        <time>2019-11-23T07:21:04Z</time>
      </trkpt>
      <trkpt lat="56.843530224172" lon="14.763660646781">
        <ele>170.4</ele>
        <time>2019-11-23T07:21:11Z</time>
      </trkpt>
      <trkpt lat="56.843711524669" lon="14.763676740029">
        <ele>170.4</ele>
        <time>2019-11-23T07:21:17Z</time>
      </trkpt>
      <trkpt lat="56.843909002233" lon="14.763680511884">
        <ele>170.2</ele>
        <time>2019-11-23T07:21:24Z</time>
      </trkpt>
      <trkpt lat="56.844102791761" lon="14.763625945715">
        <ele>170.4</ele>
        <time>2019-11-23T07:21:31Z</time>
      </trkpt>
      <trkpt lat="56.84429817385" lon="14.763527626028">
        <ele>170.4</ele>
        <time>2019-11-23T07:21:38Z</time>
      </trkpt>
      <trkpt lat="56.844485676953" lon="14.763367699376">
        <ele>170.6</ele>
        <time>2019-11-23T07:21:45Z</time>
      </trkpt>
      <trkpt lat="56.844679047386" lon="14.763298883977">
        <ele>171</ele>
        <time>2019-11-23T07:21:52Z</time>
      </trkpt>
      <trkpt lat="56.844793460321" lon="14.763559477248">
        <ele>171.2</ele>
        <time>2019-11-23T07:21:58Z</time>
      </trkpt>
      <trkpt lat="56.844783988774" lon="14.763909421573">
        <ele>171.2</ele>
        <time>2019-11-23T07:22:04Z</time>
      </trkpt>
      <trkpt lat="56.8447801331" lon="14.764186359549">
        <ele>170.6</ele>
        <time>2019-11-23T07:22:09Z</time>
      </trkpt>
      <trkpt lat="56.844955985362" lon="14.764345112735">
        <ele>170.8</ele>
        <time>2019-11-23T07:22:16Z</time>
      </trkpt>
      <trkpt lat="56.845133178728" lon="14.764452065779">
        <ele>170.8</ele>
        <time>2019-11-23T07:22:22Z</time>
      </trkpt>
      <trkpt lat="56.845314646863" lon="14.764558012995">
        <ele>170.6</ele>
        <time>2019-11-23T07:22:29Z</time>
      </trkpt>
      <trkpt lat="56.845440710639" lon="14.764618949408">
        <ele>170.2</ele>
        <time>2019-11-23T07:22:33Z</time>
      </trkpt>
      <trkpt lat="56.845636092728" lon="14.764639065968">
        <ele>169.6</ele>
        <time>2019-11-23T07:22:39Z</time>
      </trkpt>
      <trkpt lat="56.845820662166" lon="14.764628672412">
        <ele>169.8</ele>
        <time>2019-11-23T07:22:45Z</time>
      </trkpt>
      <trkpt lat="56.846019313196" lon="14.764585757084">
        <ele>169.8</ele>
        <time>2019-11-23T07:22:52Z</time>
      </trkpt>
      <trkpt lat="56.846200781331" lon="14.764464806267">
        <ele>169.6</ele>
        <time>2019-11-23T07:22:59Z</time>
      </trkpt>
      <trkpt lat="56.846347380762" lon="14.764264311219">
        <ele>169.8</ele>
        <time>2019-11-23T07:23:05Z</time>
      </trkpt>
      <trkpt lat="56.846412340487" lon="14.763933812902">
        <ele>169.4</ele>
        <time>2019-11-23T07:23:11Z</time>
      </trkpt>
      <trkpt lat="56.846406892252" lon="14.763599710368">
        <ele>169.4</ele>
        <time>2019-11-23T07:23:17Z</time>
      </trkpt>
      <trkpt lat="56.846465062638" lon="14.763424277201">
        <ele>169.4</ele>
        <time>2019-11-23T07:23:21Z</time>
      </trkpt>
      <trkpt lat="56.846644602936" lon="14.76340172989">
        <ele>169.2</ele>
        <time>2019-11-23T07:23:27Z</time>
      </trkpt>
      <trkpt lat="56.846791537643" lon="14.763408267772">
        <ele>169.2</ele>
        <time>2019-11-23T07:23:32Z</time>
      </trkpt>
      <trkpt lat="56.846984740438" lon="14.763439867535">
        <ele>169</ele>
        <time>2019-11-23T07:23:39Z</time>
      </trkpt>
      <trkpt lat="56.847177943233" lon="14.763471970212">
        <ele>169</ele>
        <time>2019-11-23T07:23:46Z</time>
      </trkpt>
      <trkpt lat="56.847349269269" lon="14.763580348179">
        <ele>169</ele>
        <time>2019-11-23T07:23:52Z</time>
      </trkpt>
      <trkpt lat="56.847526965549" lon="14.763624604611">
        <ele>169.2</ele>
        <time>2019-11-23T07:23:58Z</time>
      </trkpt>
      <trkpt lat="56.847668452021" lon="14.763435676585">
        <ele>169.2</ele>
        <time>2019-11-23T07:24:05Z</time>
      </trkpt>
      <trkpt lat="56.847712456996" lon="14.763109285399">
        <ele>169.8</ele>
        <time>2019-11-23T07:24:11Z</time>
      </trkpt>
      <trkpt lat="56.847727125321" lon="14.762878280235">
        <ele>170.2</ele>
        <time>2019-11-23T07:24:15Z</time>
      </trkpt>
      <trkpt lat="56.847746906605" lon="14.7627387216">
        <ele>170.6</ele>
        <time>2019-11-23T07:24:18Z</time>
      </trkpt>
      <trkpt lat="56.847841957351" lon="14.76265238803">
        <ele>171.4</ele>
        <time>2019-11-23T07:24:22Z</time>
      </trkpt>
      <trkpt lat="56.847946395825" lon="14.762585751925">
        <ele>172.4</ele>
        <time>2019-11-23T07:24:26Z</time>
      </trkpt>
      <trkpt lat="56.84805913238" lon="14.76227101158">
        <ele>173.2</ele>
        <time>2019-11-23T07:24:33Z</time>
      </trkpt>
      <trkpt lat="56.848205731811" lon="14.762114856783">
        <ele>172.2</ele>
        <time>2019-11-23T07:24:39Z</time>
      </trkpt>
      <trkpt lat="56.84838267372" lon="14.762174200635">
        <ele>172</ele>
        <time>2019-11-23T07:24:45Z</time>
      </trkpt>
      <trkpt lat="56.848583671682" lon="14.762091806558">
        <ele>171.8</ele>
        <time>2019-11-23T07:24:52Z</time>
      </trkpt>
      <trkpt lat="56.84878332854" lon="14.762022152969">
        <ele>171.6</ele>
        <time>2019-11-23T07:24:59Z</time>
      </trkpt>
      <trkpt lat="56.84898449414" lon="14.76194327929">
        <ele>171.6</ele>
        <time>2019-11-23T07:25:06Z</time>
      </trkpt>
      <trkpt lat="56.849191778527" lon="14.761890054225">
        <ele>171.6</ele>
        <time>2019-11-23T07:25:13Z</time>
      </trkpt>
      <trkpt lat="56.849391435385" lon="14.761827106156">
        <ele>171.8</ele>
        <time>2019-11-23T07:25:20Z</time>
      </trkpt>
      <trkpt lat="56.849539795015" lon="14.761805480854">
        <ele>171.4</ele>
        <time>2019-11-23T07:25:25Z</time>
      </trkpt>
      <trkpt lat="56.84972796867" lon="14.76174546645">
        <ele>171.2</ele>
        <time>2019-11-23T07:25:32Z</time>
      </trkpt>
      <trkpt lat="56.8499350016" lon="14.761744209165">
        <ele>170.6</ele>
        <time>2019-11-23T07:25:39Z</time>
      </trkpt>
      <trkpt lat="56.850134826096" lon="14.761747645744">
        <ele>171</ele>
        <time>2019-11-23T07:25:46Z</time>
      </trkpt>
      <trkpt lat="56.850321742466" lon="14.76167086754">
        <ele>170.6</ele>
        <time>2019-11-23T07:25:52Z</time>
      </trkpt>
      <trkpt lat="56.850497930004" lon="14.761755776187">
        <ele>170.2</ele>
        <time>2019-11-23T07:25:58Z</time>
      </trkpt>
      <trkpt lat="56.850688031496" lon="14.761782095353">
        <ele>169.2</ele>
        <time>2019-11-23T07:26:04Z</time>
      </trkpt>
      <trkpt lat="56.850880563739" lon="14.761799781162">
        <ele>169</ele>
        <time>2019-11-23T07:26:11Z</time>
      </trkpt>
      <trkpt lat="56.851082986624" lon="14.761807324872">
        <ele>169.6</ele>
        <time>2019-11-23T07:26:18Z</time>
      </trkpt>
      <trkpt lat="56.851289097545" lon="14.761858957376">
        <ele>168.6</ele>
        <time>2019-11-23T07:26:25Z</time>
      </trkpt>
      <trkpt lat="56.851491436611" lon="14.761924252377">
        <ele>168.4</ele>
        <time>2019-11-23T07:26:32Z</time>
      </trkpt>
      <trkpt lat="56.85167340766" lon="14.761974795234">
        <ele>168.6</ele>
        <time>2019-11-23T07:26:38Z</time>
      </trkpt>
      <trkpt lat="56.851864598799" lon="14.761990888482">
        <ele>168.8</ele>
        <time>2019-11-23T07:26:45Z</time>
      </trkpt>
      <trkpt lat="56.852048246228" lon="14.762009580119">
        <ele>169</ele>
        <time>2019-11-23T07:26:51Z</time>
      </trkpt>
      <trkpt lat="56.852252010217" lon="14.762016537096">
        <ele>169.2</ele>
        <time>2019-11-23T07:26:58Z</time>
      </trkpt>
      <trkpt lat="56.852445213012" lon="14.762039168226">
        <ele>168.8</ele>
        <time>2019-11-23T07:27:04Z</time>
      </trkpt>
      <trkpt lat="56.852634224857" lon="14.762032211249">
        <ele>168</ele>
        <time>2019-11-23T07:27:10Z</time>
      </trkpt>
      <trkpt lat="56.852785853428" lon="14.761866333448">
        <ele>167.8</ele>
        <time>2019-11-23T07:27:16Z</time>
      </trkpt>
      <trkpt lat="56.852830193679" lon="14.76154346266">
        <ele>167.8</ele>
        <time>2019-11-23T07:27:22Z</time>
      </trkpt>
      <trkpt lat="56.852834971362" lon="14.761155799785">
        <ele>168</ele>
        <time>2019-11-23T07:27:29Z</time>
      </trkpt>
      <trkpt lat="56.852852657171" lon="14.760788588746">
        <ele>168.2</ele>
        <time>2019-11-23T07:27:36Z</time>
      </trkpt>
      <trkpt lat="56.852884759848" lon="14.760434872566">
        <ele>168.2</ele>
        <time>2019-11-23T07:27:43Z</time>
      </trkpt>
      <trkpt lat="56.852942259682" lon="14.760103033145">
        <ele>168.4</ele>
        <time>2019-11-23T07:27:50Z</time>
      </trkpt>
      <trkpt lat="56.852988863046" lon="14.75973464864">
        <ele>168.6</ele>
        <time>2019-11-23T07:27:57Z</time>
      </trkpt>
      <trkpt lat="56.853028341795" lon="14.759379842813">
        <ele>168.6</ele>
        <time>2019-11-23T07:28:04Z</time>
      </trkpt>
      <trkpt lat="56.8531033598" lon="14.759023528244">
        <ele>168.6</ele>
        <time>2019-11-23T07:28:11Z</time>
      </trkpt>
      <trkpt lat="56.853118028125" lon="14.758686408226">
        <ele>168.4</ele>
        <time>2019-11-23T07:28:17Z</time>
      </trkpt>
      <trkpt lat="56.853130265699" lon="14.758353479158">
        <ele>168.2</ele>
        <time>2019-11-23T07:28:23Z</time>
      </trkpt>
      <trkpt lat="56.85317376776" lon="14.75802641742">
        <ele>168.8</ele>
        <time>2019-11-23T07:28:30Z</time>
      </trkpt>
      <trkpt lat="56.853187514076" lon="14.75777412223">
        <ele>169.2</ele>
        <time>2019-11-23T07:28:35Z</time>
      </trkpt>
      <trkpt lat="56.853231016137" lon="14.757412359426">
        <ele>170</ele>
        <time>2019-11-23T07:28:43Z</time>
      </trkpt>
      <trkpt lat="56.853247863756" lon="14.757078256892">
        <ele>170.2</ele>
        <time>2019-11-23T07:28:50Z</time>
      </trkpt>
      <trkpt lat="56.853239398037" lon="14.756787907876">
        <ele>170.2</ele>
        <time>2019-11-23T07:28:55Z</time>
      </trkpt>
      <trkpt lat="56.853237973114" lon="14.756431760945">
        <ele>169.8</ele>
        <time>2019-11-23T07:29:02Z</time>
      </trkpt>
      <trkpt lat="56.853185250963" lon="14.756113248745">
        <ele>169.4</ele>
        <time>2019-11-23T07:29:09Z</time>
      </trkpt>
      <trkpt lat="56.853106377284" lon="14.755793982174">
        <ele>169.4</ele>
        <time>2019-11-23T07:29:15Z</time>
      </trkpt>
      <trkpt lat="56.852989785055" lon="14.755498939294">
        <ele>169.6</ele>
        <time>2019-11-23T07:29:22Z</time>
      </trkpt>
      <trkpt lat="56.852882412916" lon="14.755228623019">
        <ele>169.6</ele>
        <time>2019-11-23T07:29:28Z</time>
      </trkpt>
      <trkpt lat="56.852796330803" lon="14.754923773316">
        <ele>169.6</ele>
        <time>2019-11-23T07:29:35Z</time>
      </trkpt>
      <trkpt lat="56.852718295314" lon="14.754596627759">
        <ele>169.6</ele>
        <time>2019-11-23T07:29:42Z</time>
      </trkpt>
      <trkpt lat="56.852662136584" lon="14.754279540482">
        <ele>169.8</ele>
        <time>2019-11-23T07:29:49Z</time>
      </trkpt>
      <trkpt lat="56.852676050538" lon="14.754214413119">
        <ele>169.8</ele>
        <time>2019-11-23T07:29:51Z</time>
      </trkpt>
      <trkpt lat="56.852491145824" lon="14.754135120345">
        <ele>169.8</ele>
        <time>2019-11-23T07:29:58Z</time>
      </trkpt>
      <trkpt lat="56.852302553074" lon="14.754038393219">
        <ele>170.2</ele>
        <time>2019-11-23T07:30:04Z</time>
      </trkpt>
      <trkpt lat="56.852131394676" lon="14.753836724705">
        <ele>170</ele>
        <time>2019-11-23T07:30:11Z</time>
      </trkpt>
      <trkpt lat="56.851990075842" lon="14.753570934656">
        <ele>170</ele>
        <time>2019-11-23T07:30:18Z</time>
      </trkpt>
      <trkpt lat="56.851926373402" lon="14.75323029424">
        <ele>170.2</ele>
        <time>2019-11-23T07:30:25Z</time>
      </trkpt>
      <trkpt lat="56.852042546536" lon="14.752976909403">
        <ele>170</ele>
        <time>2019-11-23T07:30:33Z</time>
      </trkpt>
      <trkpt lat="56.852210268355" lon="14.752805667186">
        <ele>169.8</ele>
        <time>2019-11-23T07:30:40Z</time>
      </trkpt>
      <trkpt lat="56.852341361271" lon="14.752532165789">
        <ele>169.6</ele>
        <time>2019-11-23T07:30:46Z</time>
      </trkpt>
      <trkpt lat="56.852468598513" lon="14.752276853115">
        <ele>169.4</ele>
        <time>2019-11-23T07:30:52Z</time>
      </trkpt>
      <trkpt lat="56.852586448027" lon="14.751975942905">
        <ele>169.6</ele>
        <time>2019-11-23T07:30:59Z</time>
      </trkpt>
      <trkpt lat="56.852682839877" lon="14.751667488985">
        <ele>170</ele>
        <time>2019-11-23T07:31:06Z</time>
      </trkpt>
      <trkpt lat="56.852767999981" lon="14.751369680078">
        <ele>169.8</ele>
        <time>2019-11-23T07:31:12Z</time>
      </trkpt>
      <trkpt lat="56.852870594437" lon="14.751085617487">
        <ele>170</ele>
        <time>2019-11-23T07:31:18Z</time>
      </trkpt>
      <trkpt lat="56.853001854991" lon="14.750824940397">
        <ele>170</ele>
        <time>2019-11-23T07:31:24Z</time>
      </trkpt>
      <trkpt lat="56.853132780269" lon="14.750574237768">
        <ele>170.2</ele>
        <time>2019-11-23T07:31:30Z</time>
      </trkpt>
      <trkpt lat="56.853280636985" lon="14.750338203464">
        <ele>169.8</ele>
        <time>2019-11-23T07:31:36Z</time>
      </trkpt>
      <trkpt lat="56.853388847314" lon="14.750049447009">
        <ele>169.8</ele>
        <time>2019-11-23T07:31:42Z</time>
      </trkpt>
      <trkpt lat="56.853407203675" lon="14.749717020855">
        <ele>169.8</ele>
        <time>2019-11-23T07:31:48Z</time>
      </trkpt>
      <trkpt lat="56.853363114881" lon="14.749354922775">
        <ele>170</ele>
        <time>2019-11-23T07:31:55Z</time>
      </trkpt>
      <trkpt lat="56.853317349707" lon="14.749002128604">
        <ele>170.2</ele>
        <time>2019-11-23T07:32:02Z</time>
      </trkpt>
      <trkpt lat="56.853274099103" lon="14.748653273926">
        <ele>170</ele>
        <time>2019-11-23T07:32:09Z</time>
      </trkpt>
      <trkpt lat="56.853232943974" lon="14.748284889421">
        <ele>170.2</ele>
        <time>2019-11-23T07:32:16Z</time>
      </trkpt>
      <trkpt lat="56.853195812157" lon="14.747930754146">
        <ele>170.2</ele>
        <time>2019-11-23T07:32:23Z</time>
      </trkpt>
      <trkpt lat="56.85317544414" lon="14.747598830906">
        <ele>170.6</ele>
        <time>2019-11-23T07:32:29Z</time>
      </trkpt>
      <trkpt lat="56.853182233479" lon="14.747548371868">
        <ele>170.6</ele>
        <time>2019-11-23T07:32:30Z</time>
      </trkpt>
      <trkpt lat="56.853365294175" lon="14.747374112167">
        <ele>170.4</ele>
        <time>2019-11-23T07:32:36Z</time>
      </trkpt>
      <trkpt lat="56.853548690147" lon="14.747313427211">
        <ele>169.8</ele>
        <time>2019-11-23T07:32:42Z</time>
      </trkpt>
      <trkpt lat="56.853735774155" lon="14.747285096389">
        <ele>170</ele>
        <time>2019-11-23T07:32:48Z</time>
      </trkpt>
      <trkpt lat="56.853919086308" lon="14.747274870471">
        <ele>169.8</ele>
        <time>2019-11-23T07:32:54Z</time>
      </trkpt>
      <trkpt lat="56.854096950226" lon="14.747227009822">
        <ele>169.8</ele>
        <time>2019-11-23T07:33:00Z</time>
      </trkpt>
      <trkpt lat="56.854294260152" lon="14.747138245501">
        <ele>169.8</ele>
        <time>2019-11-23T07:33:07Z</time>
      </trkpt>
      <trkpt lat="56.854487127671" lon="14.747048391533">
        <ele>169.8</ele>
        <time>2019-11-23T07:33:14Z</time>
      </trkpt>
      <trkpt lat="56.854688796185" lon="14.747001285255">
        <ele>169.6</ele>
        <time>2019-11-23T07:33:21Z</time>
      </trkpt>
      <trkpt lat="56.854871605424" lon="14.746955520081">
        <ele>169.2</ele>
        <time>2019-11-23T07:33:27Z</time>
      </trkpt>
      <trkpt lat="56.855061036364" lon="14.746933727141">
        <ele>169.4</ele>
        <time>2019-11-23T07:33:34Z</time>
      </trkpt>
      <trkpt lat="56.855148711038" lon="14.746910425459">
        <ele>169.2</ele>
        <time>2019-11-23T07:33:37Z</time>
      </trkpt>
      <trkpt lat="56.85533881253" lon="14.746847812666">
        <ele>169.4</ele>
        <time>2019-11-23T07:33:44Z</time>
      </trkpt>
      <trkpt lat="56.855535451904" lon="14.746773381394">
        <ele>169.4</ele>
        <time>2019-11-23T07:33:51Z</time>
      </trkpt>
      <trkpt lat="56.855708873415" lon="14.746666763626">
        <ele>169.4</ele>
        <time>2019-11-23T07:33:57Z</time>
      </trkpt>
      <trkpt lat="56.855908278816" lon="14.746541705678">
        <ele>170.2</ele>
        <time>2019-11-23T07:34:04Z</time>
      </trkpt>
      <trkpt lat="56.856095195186" lon="14.746525193335">
        <ele>169.8</ele>
        <time>2019-11-23T07:34:10Z</time>
      </trkpt>
      <trkpt lat="56.856301306107" lon="14.746490492269">
        <ele>169.8</ele>
        <time>2019-11-23T07:34:17Z</time>
      </trkpt>
      <trkpt lat="56.856482271328" lon="14.746446654932">
        <ele>170</ele>
        <time>2019-11-23T07:34:23Z</time>
      </trkpt>
      <trkpt lat="56.856684694213" lon="14.746395944437">
        <ele>170</ele>
        <time>2019-11-23T07:34:30Z</time>
      </trkpt>
      <trkpt lat="56.856862558131" lon="14.746354370213">
        <ele>170.2</ele>
        <time>2019-11-23T07:34:36Z</time>
      </trkpt>
      <trkpt lat="56.857039667678" lon="14.746322938088">
        <ele>170</ele>
        <time>2019-11-23T07:34:42Z</time>
      </trkpt>
      <trkpt lat="56.857216441949" lon="14.746246076065">
        <ele>170.4</ele>
        <time>2019-11-23T07:34:48Z</time>
      </trkpt>
      <trkpt lat="56.857394724962" lon="14.746198466873">
        <ele>170.2</ele>
        <time>2019-11-23T07:34:54Z</time>
      </trkpt>
      <trkpt lat="56.857569822853" lon="14.746113725864">
        <ele>170</ele>
        <time>2019-11-23T07:35:00Z</time>
      </trkpt>
      <trkpt lat="56.857745507477" lon="14.746044575189">
        <ele>170</ele>
        <time>2019-11-23T07:35:06Z</time>
      </trkpt>
      <trkpt lat="56.857951031665" lon="14.745987578269">
        <ele>169.8</ele>
        <time>2019-11-23T07:35:13Z</time>
      </trkpt>
      <trkpt lat="56.85812998523" lon="14.74592127744">
        <ele>169.2</ele>
        <time>2019-11-23T07:35:19Z</time>
      </trkpt>
      <trkpt lat="56.858160243889" lon="14.745914488101">
        <ele>169.2</ele>
        <time>2019-11-23T07:35:20Z</time>
      </trkpt>
      <trkpt lat="56.858342466395" lon="14.745859838113">
        <ele>168.6</ele>
        <time>2019-11-23T07:35:26Z</time>
      </trkpt>
      <trkpt lat="56.85848370141" lon="14.745815581681">
        <ele>168</ele>
        <time>2019-11-23T07:35:31Z</time>
      </trkpt>
      <trkpt lat="56.858688135951" lon="14.7457653741">
        <ele>168</ele>
        <time>2019-11-23T07:35:38Z</time>
      </trkpt>
      <trkpt lat="56.858887206076" lon="14.745682728566">
        <ele>167.6</ele>
        <time>2019-11-23T07:35:45Z</time>
      </trkpt>
      <trkpt lat="56.859065237632" lon="14.745633945908">
        <ele>167.6</ele>
        <time>2019-11-23T07:35:51Z</time>
      </trkpt>
      <trkpt lat="56.859261374092" lon="14.745583235413">
        <ele>167.6</ele>
        <time>2019-11-23T07:35:58Z</time>
      </trkpt>
      <trkpt lat="56.859440160019" lon="14.745546187415">
        <ele>167.8</ele>
        <time>2019-11-23T07:36:04Z</time>
      </trkpt>
      <trkpt lat="56.859639481601" lon="14.745521293172">
        <ele>167.8</ele>
        <time>2019-11-23T07:36:11Z</time>
      </trkpt>
      <trkpt lat="56.85974769193" lon="14.745618104117">
        <ele>167.8</ele>
        <time>2019-11-23T07:36:15Z</time>
      </trkpt>
      <trkpt lat="56.859790020525" lon="14.745833854223">
        <ele>166.8</ele>
        <time>2019-11-23T07:36:19Z</time>
      </trkpt>
      <trkpt lat="56.859835282785" lon="14.74618698367">
        <ele>166</ele>
        <time>2019-11-23T07:36:26Z</time>
      </trkpt>
      <trkpt lat="56.859888591669" lon="14.746532653226">
        <ele>166.2</ele>
        <time>2019-11-23T07:36:33Z</time>
      </trkpt>
      <trkpt lat="56.859935278852" lon="14.746895002763">
        <ele>166.8</ele>
        <time>2019-11-23T07:36:40Z</time>
      </trkpt>
      <trkpt lat="56.859970818108" lon="14.747216700085">
        <ele>167.2</ele>
        <time>2019-11-23T07:36:46Z</time>
      </trkpt>
      <trkpt lat="56.860025803372" lon="14.747567817876">
        <ele>166.8</ele>
        <time>2019-11-23T07:36:53Z</time>
      </trkpt>
      <trkpt lat="56.860048518321" lon="14.747894628157">
        <ele>166.8</ele>
        <time>2019-11-23T07:36:59Z</time>
      </trkpt>
      <trkpt lat="56.860073915478" lon="14.748223366275">
        <ele>166.6</ele>
        <time>2019-11-23T07:37:05Z</time>
      </trkpt>
      <trkpt lat="56.860095289323" lon="14.748563587596">
        <ele>165.8</ele>
        <time>2019-11-23T07:37:12Z</time>
      </trkpt>
      <trkpt lat="56.860107862173" lon="14.748593175703">
        <ele>165.8</ele>
        <time>2019-11-23T07:37:13Z</time>
      </trkpt>
      <trkpt lat="56.860288240661" lon="14.748667523156">
        <ele>165.6</ele>
        <time>2019-11-23T07:37:20Z</time>
      </trkpt>
      <trkpt lat="56.860472223366" lon="14.748674144857">
        <ele>165.2</ele>
        <time>2019-11-23T07:37:27Z</time>
      </trkpt>
      <trkpt lat="56.860660648478" lon="14.748652519555">
        <ele>165</ele>
        <time>2019-11-23T07:37:33Z</time>
      </trkpt>
      <trkpt lat="56.860858628956" lon="14.748603317802">
        <ele>165.4</ele>
        <time>2019-11-23T07:37:39Z</time>
      </trkpt>
      <trkpt lat="56.861052418484" lon="14.748592840427">
        <ele>165.2</ele>
        <time>2019-11-23T07:37:45Z</time>
      </trkpt>
      <trkpt lat="56.861256098654" lon="14.748649753528">
        <ele>165.6</ele>
        <time>2019-11-23T07:37:52Z</time>
      </trkpt>
      <trkpt lat="56.861454330589" lon="14.748666601147">
        <ele>165.2</ele>
        <time>2019-11-23T07:37:59Z</time>
      </trkpt>
      <trkpt lat="56.861634206163" lon="14.748693087951">
        <ele>165.4</ele>
        <time>2019-11-23T07:38:06Z</time>
      </trkpt>
      <trkpt lat="56.861815087565" lon="14.748767519223">
        <ele>165</ele>
        <time>2019-11-23T07:38:12Z</time>
      </trkpt>
      <trkpt lat="56.861996890976" lon="14.748747486482">
        <ele>165.2</ele>
        <time>2019-11-23T07:38:18Z</time>
      </trkpt>
      <trkpt lat="56.862195122911" lon="14.748682442938">
        <ele>165.2</ele>
        <time>2019-11-23T07:38:25Z</time>
      </trkpt>
      <trkpt lat="56.862286737078" lon="14.748681856205">
        <ele>164.8</ele>
        <time>2019-11-23T07:38:29Z</time>
      </trkpt>
      <trkpt lat="56.862477844398" lon="14.748662661654">
        <ele>165</ele>
        <time>2019-11-23T07:38:35Z</time>
      </trkpt>
      <trkpt lat="56.862673394125" lon="14.748603233983">
        <ele>165</ele>
        <time>2019-11-23T07:38:43Z</time>
      </trkpt>
      <trkpt lat="56.862859220848" lon="14.748521426639">
        <ele>165</ele>
        <time>2019-11-23T07:38:51Z</time>
      </trkpt>
      <trkpt lat="56.86303004397" lon="14.748390333723">
        <ele>165.4</ele>
        <time>2019-11-23T07:38:57Z</time>
      </trkpt>
      <trkpt lat="56.863209248992" lon="14.748311376225">
        <ele>165.6</ele>
        <time>2019-11-23T07:39:03Z</time>
      </trkpt>
      <trkpt lat="56.863400440131" lon="14.748257815884">
        <ele>165.6</ele>
        <time>2019-11-23T07:39:09Z</time>
      </trkpt>
      <trkpt lat="56.863599258799" lon="14.748153964143">
        <ele>165.4</ele>
        <time>2019-11-23T07:39:17Z</time>
      </trkpt>
      <trkpt lat="56.863795981992" lon="14.748052207877">
        <ele>165.2</ele>
        <time>2019-11-23T07:39:23Z</time>
      </trkpt>
      <trkpt lat="56.863986502579" lon="14.747986409962">
        <ele>165</ele>
        <time>2019-11-23T07:39:30Z</time>
      </trkpt>
      <trkpt lat="56.86416998237" lon="14.747966293402">
        <ele>164.8</ele>
        <time>2019-11-23T07:39:38Z</time>
      </trkpt>
      <trkpt lat="56.864356228188" lon="14.747994540405">
        <ele>164.6</ele>
        <time>2019-11-23T07:39:44Z</time>
      </trkpt>
      <trkpt lat="56.864537696323" lon="14.74795975552">
        <ele>164.6</ele>
        <time>2019-11-23T07:39:50Z</time>
      </trkpt>
      <trkpt lat="56.864745399805" lon="14.747907368645">
        <ele>164.8</ele>
        <time>2019-11-23T07:39:59Z</time>
      </trkpt>
      <trkpt lat="56.864933154365" lon="14.747815922116">
        <ele>164.8</ele>
        <time>2019-11-23T07:40:07Z</time>
      </trkpt>
      <trkpt lat="56.865131218662" lon="14.747767307096">
        <ele>164.8</ele>
        <time>2019-11-23T07:40:14Z</time>
      </trkpt>
      <trkpt lat="56.865286283812" lon="14.747623892787">
        <ele>165.2</ele>
        <time>2019-11-23T07:40:20Z</time>
      </trkpt>
      <trkpt lat="56.865459034771" lon="14.7475171912">
        <ele>165.4</ele>
        <time>2019-11-23T07:40:25Z</time>
      </trkpt>
      <trkpt lat="56.86564016763" lon="14.747447789068">
        <ele>165.6</ele>
        <time>2019-11-23T07:40:31Z</time>
      </trkpt>
      <trkpt lat="56.865842674334" lon="14.747387523207">
        <ele>165.4</ele>
        <time>2019-11-23T07:40:38Z</time>
      </trkpt>
      <trkpt lat="56.866047444151" lon="14.747301105818">
        <ele>165.6</ele>
        <time>2019-11-23T07:40:45Z</time>
      </trkpt>
      <trkpt lat="56.866236372177" lon="14.747166911599">
        <ele>165.2</ele>
        <time>2019-11-23T07:40:52Z</time>
      </trkpt>
      <trkpt lat="56.866434185017" lon="14.747058449813">
        <ele>165.8</ele>
        <time>2019-11-23T07:40:59Z</time>
      </trkpt>
      <trkpt lat="56.866614228229" lon="14.746956609728">
        <ele>165.4</ele>
        <time>2019-11-23T07:41:06Z</time>
      </trkpt>
      <trkpt lat="56.866807598662" lon="14.746866085208">
        <ele>165.2</ele>
        <time>2019-11-23T07:41:13Z</time>
      </trkpt>
      <trkpt lat="56.866994012118" lon="14.746890308899">
        <ele>164.8</ele>
        <time>2019-11-23T07:41:20Z</time>
      </trkpt>
      <trkpt lat="56.867195680632" lon="14.746950239484">
        <ele>164.8</ele>
        <time>2019-11-23T07:41:27Z</time>
      </trkpt>
      <trkpt lat="56.867389302522" lon="14.746867258674">
        <ele>165.2</ele>
        <time>2019-11-23T07:41:34Z</time>
      </trkpt>
      <trkpt lat="56.86756046092" lon="14.746946467629">
        <ele>165.2</ele>
        <time>2019-11-23T07:41:42Z</time>
      </trkpt>
      <trkpt lat="56.867723488875" lon="14.747114273267">
        <ele>165.4</ele>
        <time>2019-11-23T07:41:50Z</time>
      </trkpt>
      <trkpt lat="56.86791250072" lon="14.747181831381">
        <ele>165.2</ele>
        <time>2019-11-23T07:41:56Z</time>
      </trkpt>
      <trkpt lat="56.868106541705" lon="14.747199098095">
        <ele>165.4</ele>
        <time>2019-11-23T07:42:02Z</time>
      </trkpt>
      <trkpt lat="56.868268899108" lon="14.747193482222">
        <ele>166</ele>
        <time>2019-11-23T07:42:07Z</time>
      </trkpt>
      <trkpt lat="56.868474507115" lon="14.747202702312">
        <ele>166</ele>
        <time>2019-11-23T07:42:14Z</time>
      </trkpt>
      <trkpt lat="56.868680450398" lon="14.747167498332">
        <ele>166</ele>
        <time>2019-11-23T07:42:21Z</time>
      </trkpt>
      <trkpt lat="56.868875497211" lon="14.747214017877">
        <ele>166.6</ele>
        <time>2019-11-23T07:42:28Z</time>
      </trkpt>
      <trkpt lat="56.869059312278" lon="14.747198176086">
        <ele>166.4</ele>
        <time>2019-11-23T07:42:35Z</time>
      </trkpt>
      <trkpt lat="56.869252347435" lon="14.747173030386">
        <ele>166</ele>
        <time>2019-11-23T07:42:42Z</time>
      </trkpt>
      <trkpt lat="56.869435575769" lon="14.747153081464">
        <ele>166</ele>
        <time>2019-11-23T07:42:48Z</time>
      </trkpt>
      <trkpt lat="56.869638585387" lon="14.747080075115">
        <ele>166.2</ele>
        <time>2019-11-23T07:42:55Z</time>
      </trkpt>
      <trkpt lat="56.869829189793" lon="14.746965410723">
        <ele>166.4</ele>
        <time>2019-11-23T07:43:02Z</time>
      </trkpt>
      <trkpt lat="56.870010155014" lon="14.746913275305">
        <ele>166.4</ele>
        <time>2019-11-23T07:43:09Z</time>
      </trkpt>
      <trkpt lat="56.870202184343" lon="14.746884190112">
        <ele>166</ele>
        <time>2019-11-23T07:43:16Z</time>
      </trkpt>
      <trkpt lat="56.870396812061" lon="14.746779835457">
        <ele>166.4</ele>
        <time>2019-11-23T07:43:23Z</time>
      </trkpt>
      <trkpt lat="56.870599067308" lon="14.746695010629">
        <ele>166.2</ele>
        <time>2019-11-23T07:43:30Z</time>
      </trkpt>
      <trkpt lat="56.870784474936" lon="14.74675276192">
        <ele>165.4</ele>
        <time>2019-11-23T07:43:38Z</time>
      </trkpt>
      <trkpt lat="56.870995447359" lon="14.746775644507">
        <ele>165.4</ele>
        <time>2019-11-23T07:43:45Z</time>
      </trkpt>
      <trkpt lat="56.871182866643" lon="14.746807076632">
        <ele>165.6</ele>
        <time>2019-11-23T07:43:51Z</time>
      </trkpt>
      <trkpt lat="56.871369447737" lon="14.746900199541">
        <ele>165.8</ele>
        <time>2019-11-23T07:43:58Z</time>
      </trkpt>
      <trkpt lat="56.871543958895" lon="14.747033387932">
        <ele>165.6</ele>
        <time>2019-11-23T07:44:05Z</time>
      </trkpt>
      <trkpt lat="56.871725259392" lon="14.747109747041">
        <ele>165.4</ele>
        <time>2019-11-23T07:44:11Z</time>
      </trkpt>
      <trkpt lat="56.871924664793" lon="14.747067166989">
        <ele>165.4</ele>
        <time>2019-11-23T07:44:18Z</time>
      </trkpt>
      <trkpt lat="56.872113341362" lon="14.746999273599">
        <ele>165.2</ele>
        <time>2019-11-23T07:44:26Z</time>
      </trkpt>
      <trkpt lat="56.872295899144" lon="14.746846303924">
        <ele>165.2</ele>
        <time>2019-11-23T07:44:33Z</time>
      </trkpt>
      <trkpt lat="56.872470829397" lon="14.746719569596">
        <ele>165.4</ele>
        <time>2019-11-23T07:44:40Z</time>
      </trkpt>
      <trkpt lat="56.872647938944" lon="14.746514045408">
        <ele>165.6</ele>
        <time>2019-11-23T07:44:47Z</time>
      </trkpt>
      <trkpt lat="56.87282010317" lon="14.746305839012">
        <ele>165.8</ele>
        <time>2019-11-23T07:44:54Z</time>
      </trkpt>
      <trkpt lat="56.872986567704" lon="14.746115653701">
        <ele>166.2</ele>
        <time>2019-11-23T07:45:01Z</time>
      </trkpt>
      <trkpt lat="56.87318723039" lon="14.745998055644">
        <ele>166.2</ele>
        <time>2019-11-23T07:45:08Z</time>
      </trkpt>
      <trkpt lat="56.873358724064" lon="14.745847181444">
        <ele>165.2</ele>
        <time>2019-11-23T07:45:14Z</time>
      </trkpt>
      <trkpt lat="56.873516555241" lon="14.745680297815">
        <ele>165.6</ele>
        <time>2019-11-23T07:45:21Z</time>
      </trkpt>
      <trkpt lat="56.873676146617" lon="14.745505870476">
        <ele>166</ele>
        <time>2019-11-23T07:45:27Z</time>
      </trkpt>
      <trkpt lat="56.873855686915" lon="14.745486340649">
        <ele>165.8</ele>
        <time>2019-11-23T07:45:34Z</time>
      </trkpt>
      <trkpt lat="56.873995664645" lon="14.745702006936">
        <ele>165</ele>
        <time>2019-11-23T07:45:40Z</time>
      </trkpt>
      <trkpt lat="56.874013350454" lon="14.745746682463">
        <ele>164.8</ele>
        <time>2019-11-23T07:45:41Z</time>
      </trkpt>
      <trkpt lat="56.874144527189" lon="14.745982130034">
        <ele>164.6</ele>
        <time>2019-11-23T07:45:47Z</time>
      </trkpt>
      <trkpt lat="56.874313841569" lon="14.746183966186">
        <ele>164.4</ele>
        <time>2019-11-23T07:45:54Z</time>
      </trkpt>
      <trkpt lat="56.874478126809" lon="14.746365015226">
        <ele>164.4</ele>
        <time>2019-11-23T07:46:01Z</time>
      </trkpt>
      <trkpt lat="56.874654565804" lon="14.746550087578">
        <ele>164.6</ele>
        <time>2019-11-23T07:46:08Z</time>
      </trkpt>
      <trkpt lat="56.8748208627" lon="14.746783355855">
        <ele>164.2</ele>
        <time>2019-11-23T07:46:15Z</time>
      </trkpt>
      <trkpt lat="56.874950614512" lon="14.747015450666">
        <ele>164.4</ele>
        <time>2019-11-23T07:46:22Z</time>
      </trkpt>
      <trkpt lat="56.875134010484" lon="14.747135898569">
        <ele>164.6</ele>
        <time>2019-11-23T07:46:29Z</time>
      </trkpt>
      <trkpt lat="56.875284633227" lon="14.747350223752">
        <ele>164.8</ele>
        <time>2019-11-23T07:46:37Z</time>
      </trkpt>
      <trkpt lat="56.87542016855" lon="14.747550215886">
        <ele>164.8</ele>
        <time>2019-11-23T07:46:43Z</time>
      </trkpt>
      <trkpt lat="56.875456965091" lon="14.747893454691">
        <ele>165.2</ele>
        <time>2019-11-23T07:46:50Z</time>
      </trkpt>
      <trkpt lat="56.87547045995" lon="14.747909715577">
        <ele>165.2</ele>
        <time>2019-11-23T07:46:51Z</time>
      </trkpt>
      <trkpt lat="56.875659807071" lon="14.747863531308">
        <ele>165.6</ele>
        <time>2019-11-23T07:46:57Z</time>
      </trkpt>
      <trkpt lat="56.875848986554" lon="14.74771165128">
        <ele>164.8</ele>
        <time>2019-11-23T07:47:03Z</time>
      </trkpt>
      <trkpt lat="56.876030454689" lon="14.747645266632">
        <ele>164.6</ele>
        <time>2019-11-23T07:47:09Z</time>
      </trkpt>
      <trkpt lat="56.876219298896" lon="14.747558849243">
        <ele>164.4</ele>
        <time>2019-11-23T07:47:17Z</time>
      </trkpt>
      <trkpt lat="56.876413256062" lon="14.747513251707">
        <ele>164.8</ele>
        <time>2019-11-23T07:47:24Z</time>
      </trkpt>
      <trkpt lat="56.87660201645" lon="14.747465977791">
        <ele>164.8</ele>
        <time>2019-11-23T07:47:30Z</time>
      </trkpt>
      <trkpt lat="56.876805528982" lon="14.747422811006">
        <ele>164.4</ele>
        <time>2019-11-23T07:47:37Z</time>
      </trkpt>
      <trkpt lat="56.876987164755" lon="14.747376123823">
        <ele>164.6</ele>
        <time>2019-11-23T07:47:43Z</time>
      </trkpt>
      <trkpt lat="56.877189922916" lon="14.747310577365">
        <ele>164.6</ele>
        <time>2019-11-23T07:47:50Z</time>
      </trkpt>
      <trkpt lat="56.877213476055" lon="14.747331364477">
        <ele>164.6</ele>
        <time>2019-11-23T07:47:51Z</time>
      </trkpt>
      <trkpt lat="56.87728849406" lon="14.747663287717">
        <ele>164.6</ele>
        <time>2019-11-23T07:47:58Z</time>
      </trkpt>
      <trkpt lat="56.877350352482" lon="14.748003257581">
        <ele>164.6</ele>
        <time>2019-11-23T07:48:05Z</time>
      </trkpt>
      <trkpt lat="56.87754749477" lon="14.748081963622">
        <ele>165.2</ele>
        <time>2019-11-23T07:48:12Z</time>
      </trkpt>
      <trkpt lat="56.877689065061" lon="14.748156813989">
        <ele>166</ele>
        <time>2019-11-23T07:48:18Z</time>
      </trkpt>
      <trkpt lat="56.877843794935" lon="14.748340545237">
        <ele>166</ele>
        <time>2019-11-23T07:48:26Z</time>
      </trkpt>
      <trkpt lat="56.877952759635" lon="14.748410366464">
        <ele>165.8</ele>
        <time>2019-11-23T07:48:30Z</time>
      </trkpt>
      <trkpt lat="56.878000033551" lon="14.748065618917">
        <ele>166.2</ele>
        <time>2019-11-23T07:48:38Z</time>
      </trkpt>
      <trkpt lat="56.878017132627" lon="14.747706873597">
        <ele>166</ele>
        <time>2019-11-23T07:48:45Z</time>
      </trkpt>
      <trkpt lat="56.878007912537" lon="14.747341003662">
        <ele>166.4</ele>
        <time>2019-11-23T07:48:53Z</time>
      </trkpt>
      <trkpt lat="56.877983018294" lon="14.74700757168">
        <ele>167</ele>
        <time>2019-11-23T07:49:00Z</time>
      </trkpt>
      <trkpt lat="56.877956950585" lon="14.746667937092">
        <ele>167.2</ele>
        <time>2019-11-23T07:49:06Z</time>
      </trkpt>
      <trkpt lat="56.877956196214" lon="14.746298546759">
        <ele>167.4</ele>
        <time>2019-11-23T07:49:13Z</time>
      </trkpt>
      <trkpt lat="56.877973630566" lon="14.746260576752">
        <ele>167.4</ele>
        <time>2019-11-23T07:49:14Z</time>
      </trkpt>
      <trkpt lat="56.878148896095" lon="14.746208357515">
        <ele>168</ele>
        <time>2019-11-23T07:49:20Z</time>
      </trkpt>
      <trkpt lat="56.878338159397" lon="14.74606460793">
        <ele>168.4</ele>
        <time>2019-11-23T07:49:27Z</time>
      </trkpt>
      <trkpt lat="56.878411417203" lon="14.745971401202">
        <ele>169</ele>
        <time>2019-11-23T07:49:30Z</time>
      </trkpt>
      <trkpt lat="56.87859187951" lon="14.745938125059">
        <ele>169</ele>
        <time>2019-11-23T07:49:36Z</time>
      </trkpt>
      <trkpt lat="56.878787261599" lon="14.74603275671">
        <ele>168.8</ele>
        <time>2019-11-23T07:49:43Z</time>
      </trkpt>
      <trkpt lat="56.878991779959" lon="14.746043317904">
        <ele>169.2</ele>
        <time>2019-11-23T07:49:50Z</time>
      </trkpt>
      <trkpt lat="56.879176014121" lon="14.745970814469">
        <ele>169</ele>
        <time>2019-11-23T07:49:57Z</time>
      </trkpt>
      <trkpt lat="56.879364020138" lon="14.745909207504">
        <ele>168.6</ele>
        <time>2019-11-23T07:50:04Z</time>
      </trkpt>
      <trkpt lat="56.879550852689" lon="14.745873584429">
        <ele>168.6</ele>
        <time>2019-11-23T07:50:12Z</time>
      </trkpt>
      <trkpt lat="56.879745815683" lon="14.745900993242">
        <ele>168.2</ele>
        <time>2019-11-23T07:50:19Z</time>
      </trkpt>
      <trkpt lat="56.879948573844" lon="14.745966791157">
        <ele>168.4</ele>
        <time>2019-11-23T07:50:26Z</time>
      </trkpt>
      <trkpt lat="56.880129455246" lon="14.746072822192">
        <ele>168.6</ele>
        <time>2019-11-23T07:50:33Z</time>
      </trkpt>
      <trkpt lat="56.880302876757" lon="14.74619620376">
        <ele>168.2</ele>
        <time>2019-11-23T07:50:39Z</time>
      </trkpt>
      <trkpt lat="56.880493481163" lon="14.746335678576">
        <ele>168.6</ele>
        <time>2019-11-23T07:50:46Z</time>
      </trkpt>
      <trkpt lat="56.880667657045" lon="14.74651052501">
        <ele>168.8</ele>
        <time>2019-11-23T07:50:54Z</time>
      </trkpt>
      <trkpt lat="56.880820878177" lon="14.746687802195">
        <ele>168.2</ele>
        <time>2019-11-23T07:51:00Z</time>
      </trkpt>
      <trkpt lat="56.880983989951" lon="14.746837083834">
        <ele>168.4</ele>
        <time>2019-11-23T07:51:06Z</time>
      </trkpt>
      <trkpt lat="56.881170068131" lon="14.746982006885">
        <ele>168.4</ele>
        <time>2019-11-23T07:51:13Z</time>
      </trkpt>
      <trkpt lat="56.881338041407" lon="14.747116201104">
        <ele>168.6</ele>
        <time>2019-11-23T07:51:20Z</time>
      </trkpt>
      <trkpt lat="56.881516743515" lon="14.747270428064">
        <ele>168.8</ele>
        <time>2019-11-23T07:51:27Z</time>
      </trkpt>
      <trkpt lat="56.881683794782" lon="14.747443095204">
        <ele>168.8</ele>
        <time>2019-11-23T07:51:34Z</time>
      </trkpt>
      <trkpt lat="56.881861071967" lon="14.74759765744">
        <ele>168.6</ele>
        <time>2019-11-23T07:51:41Z</time>
      </trkpt>
      <trkpt lat="56.882044719396" lon="14.747727241614">
        <ele>168.6</ele>
        <time>2019-11-23T07:51:48Z</time>
      </trkpt>
      <trkpt lat="56.882228031549" lon="14.747847940974">
        <ele>168.2</ele>
        <time>2019-11-23T07:51:55Z</time>
      </trkpt>
      <trkpt lat="56.882412181892" lon="14.747944081367">
        <ele>168.8</ele>
        <time>2019-11-23T07:52:02Z</time>
      </trkpt>
      <trkpt lat="56.882590548724" lon="14.748051788782">
        <ele>169.6</ele>
        <time>2019-11-23T07:52:09Z</time>
      </trkpt>
      <trkpt lat="56.882641259219" lon="14.748080035785">
        <ele>170.2</ele>
        <time>2019-11-23T07:52:11Z</time>
      </trkpt>
      <trkpt lat="56.882820631879" lon="14.748196711833">
        <ele>170.8</ele>
        <time>2019-11-23T07:52:18Z</time>
      </trkpt>
      <trkpt lat="56.882935631547" lon="14.748276339883">
        <ele>171.2</ele>
        <time>2019-11-23T07:52:22Z</time>
      </trkpt>
      <trkpt lat="56.883114920388" lon="14.748410785559">
        <ele>172</ele>
        <time>2019-11-23T07:52:29Z</time>
      </trkpt>
      <trkpt lat="56.883188932565" lon="14.748462334244">
        <ele>172.2</ele>
        <time>2019-11-23T07:52:32Z</time>
      </trkpt>
      <trkpt lat="56.883361264429" lon="14.7485816925">
        <ele>172.4</ele>
        <time>2019-11-23T07:52:40Z</time>
      </trkpt>
      <trkpt lat="56.883546085324" lon="14.748693758503">
        <ele>173</ele>
        <time>2019-11-23T07:52:47Z</time>
      </trkpt>
      <trkpt lat="56.8837392043" lon="14.748800627728">
        <ele>172.4</ele>
        <time>2019-11-23T07:52:54Z</time>
      </trkpt>
      <trkpt lat="56.883928132326" lon="14.748927278237">
        <ele>172.2</ele>
        <time>2019-11-23T07:53:02Z</time>
      </trkpt>
      <trkpt lat="56.884111109203" lon="14.749041355896">
        <ele>171.8</ele>
        <time>2019-11-23T07:53:09Z</time>
      </trkpt>
      <trkpt lat="56.884194509108" lon="14.74909550297">
        <ele>171</ele>
        <time>2019-11-23T07:53:12Z</time>
      </trkpt>
      <trkpt lat="56.884367427705" lon="14.749217711072">
        <ele>170.4</ele>
        <time>2019-11-23T07:53:18Z</time>
      </trkpt>
      <trkpt lat="56.884422999702" lon="14.749264565893">
        <ele>169.6</ele>
        <time>2019-11-23T07:53:20Z</time>
      </trkpt>
      <trkpt lat="56.884573706264" lon="14.74940898603">
        <ele>168.6</ele>
        <time>2019-11-23T07:53:26Z</time>
      </trkpt>
      <trkpt lat="56.884747882146" lon="14.749606882689">
        <ele>167.4</ele>
        <time>2019-11-23T07:53:33Z</time>
      </trkpt>
      <trkpt lat="56.88490177383" lon="14.749827326659">
        <ele>166.6</ele>
        <time>2019-11-23T07:53:39Z</time>
      </trkpt>
      <trkpt lat="56.884991963074" lon="14.74999320446">
        <ele>166.2</ele>
        <time>2019-11-23T07:53:43Z</time>
      </trkpt>
      <trkpt lat="56.885122804533" lon="14.750236447198">
        <ele>165.6</ele>
        <time>2019-11-23T07:53:49Z</time>
      </trkpt>
      <trkpt lat="56.885251969612" lon="14.750523191997">
        <ele>166</ele>
        <time>2019-11-23T07:53:56Z</time>
      </trkpt>
      <trkpt lat="56.885299327347" lon="14.750839524903">
        <ele>165.8</ele>
        <time>2019-11-23T07:54:02Z</time>
      </trkpt>
      <trkpt lat="56.88528901761" lon="14.750976904244">
        <ele>165.2</ele>
        <time>2019-11-23T07:54:05Z</time>
      </trkpt>
      <trkpt lat="56.885185417326" lon="14.751299607394">
        <ele>165.2</ele>
        <time>2019-11-23T07:54:12Z</time>
      </trkpt>
      <trkpt lat="56.885096820643" lon="14.751591046057">
        <ele>164.8</ele>
        <time>2019-11-23T07:54:18Z</time>
      </trkpt>
      <trkpt lat="56.885022976104" lon="14.751920873822">
        <ele>165.4</ele>
        <time>2019-11-23T07:54:25Z</time>
      </trkpt>
      <trkpt lat="56.884965727727" lon="14.752246426818">
        <ele>165.4</ele>
        <time>2019-11-23T07:54:32Z</time>
      </trkpt>
      <trkpt lat="56.884891044998" lon="14.752553539634">
        <ele>165.8</ele>
        <time>2019-11-23T07:54:39Z</time>
      </trkpt>
      <trkpt lat="56.88477185438" lon="14.752849420704">
        <ele>166.2</ele>
        <time>2019-11-23T07:54:46Z</time>
      </trkpt>
      <trkpt lat="56.884581249974" lon="14.752834752379">
        <ele>166.2</ele>
        <time>2019-11-23T07:54:53Z</time>
      </trkpt>
      <trkpt lat="56.88440221259" lon="14.752662085239">
        <ele>165.8</ele>
        <time>2019-11-23T07:55:00Z</time>
      </trkpt>
      <trkpt lat="56.884229880726" lon="14.752501320397">
        <ele>165.2</ele>
        <time>2019-11-23T07:55:07Z</time>
      </trkpt>
      <trkpt lat="56.884048244953" lon="14.752334185311">
        <ele>165</ele>
        <time>2019-11-23T07:55:14Z</time>
      </trkpt>
      <trkpt lat="56.883876416003" lon="14.752189346079">
        <ele>165</ele>
        <time>2019-11-23T07:55:21Z</time>
      </trkpt>
      <trkpt lat="56.88371992593" lon="14.75233929827">
        <ele>164.6</ele>
        <time>2019-11-23T07:55:28Z</time>
      </trkpt>
      <trkpt lat="56.883578858553" lon="14.752582624827">
        <ele>164.8</ele>
        <time>2019-11-23T07:55:35Z</time>
      </trkpt>
      <trkpt lat="56.883430666561" lon="14.752841793175">
        <ele>164.4</ele>
        <time>2019-11-23T07:55:43Z</time>
      </trkpt>
      <trkpt lat="56.88329915455" lon="14.753087634302">
        <ele>164.2</ele>
        <time>2019-11-23T07:55:50Z</time>
      </trkpt>
      <trkpt lat="56.883261519819" lon="14.753146978154">
        <ele>164</ele>
        <time>2019-11-23T07:55:52Z</time>
      </trkpt>
      <trkpt lat="56.883110897076" lon="14.753391813453">
        <ele>164.2</ele>
        <time>2019-11-23T07:55:59Z</time>
      </trkpt>
      <trkpt lat="56.882991622639" lon="14.753705799427">
        <ele>164.4</ele>
        <time>2019-11-23T07:56:06Z</time>
      </trkpt>
      <trkpt lat="56.882839323516" lon="14.753919956972">
        <ele>164.6</ele>
        <time>2019-11-23T07:56:13Z</time>
      </trkpt>
      <trkpt lat="56.882716528681" lon="14.754165211366">
        <ele>164.6</ele>
        <time>2019-11-23T07:56:20Z</time>
      </trkpt>
      <trkpt lat="56.882684258366" lon="14.754400910394">
        <ele>165.2</ele>
        <time>2019-11-23T07:56:25Z</time>
      </trkpt>
      <trkpt lat="56.88262022065" lon="14.754714141997">
        <ele>166</ele>
        <time>2019-11-23T07:56:32Z</time>
      </trkpt>
      <trkpt lat="56.882514273434" lon="14.755009520153">
        <ele>166</ele>
        <time>2019-11-23T07:56:39Z</time>
      </trkpt>
      <trkpt lat="56.882454678125" lon="14.754995690018">
        <ele>166.2</ele>
        <time>2019-11-23T07:56:41Z</time>
      </trkpt>
      <trkpt lat="56.882256110914" lon="14.754912793027">
        <ele>167</ele>
        <time>2019-11-23T07:56:48Z</time>
      </trkpt>
      <trkpt lat="56.882095932805" lon="14.754954534889">
        <ele>167.4</ele>
        <time>2019-11-23T07:56:55Z</time>
      </trkpt>
      <trkpt lat="56.881938688361" lon="14.755130806246">
        <ele>168</ele>
        <time>2019-11-23T07:57:02Z</time>
      </trkpt>
      <trkpt lat="56.881847828565" lon="14.755230131761">
        <ele>168.4</ele>
        <time>2019-11-23T07:57:07Z</time>
      </trkpt>
      <trkpt lat="56.881679939108" lon="14.755383688169">
        <ele>168.6</ele>
        <time>2019-11-23T07:57:13Z</time>
      </trkpt>
      <trkpt lat="56.881499644439" lon="14.75546155602">
        <ele>167.8</ele>
        <time>2019-11-23T07:57:20Z</time>
      </trkpt>
      <trkpt lat="56.88144926922" lon="14.755414785018">
        <ele>167.2</ele>
        <time>2019-11-23T07:57:22Z</time>
      </trkpt>
      <trkpt lat="56.881396798526" lon="14.755325266326">
        <ele>166</ele>
        <time>2019-11-23T07:57:25Z</time>
      </trkpt>
      <trkpt lat="56.881333096086" lon="14.755254439271">
        <ele>165</ele>
        <time>2019-11-23T07:57:28Z</time>
      </trkpt>
      <trkpt lat="56.881262185212" lon="14.755042041925">
        <ele>165.6</ele>
        <time>2019-11-23T07:57:34Z</time>
      </trkpt>
      <trkpt lat="56.881169816674" lon="14.754823777249">
        <ele>165.6</ele>
        <time>2019-11-23T07:57:39Z</time>
      </trkpt>
      <trkpt lat="56.881136205255" lon="14.754779436998">
        <ele>165.4</ele>
        <time>2019-11-23T07:57:41Z</time>
      </trkpt>
      <trkpt lat="56.881088512244" lon="14.754769127261">
        <ele>165</ele>
        <time>2019-11-23T07:57:43Z</time>
      </trkpt>
      <trkpt lat="56.880901512055" lon="14.754773318211">
        <ele>164.6</ele>
        <time>2019-11-23T07:57:50Z</time>
      </trkpt>
      <trkpt lat="56.880728593458" lon="14.754895274856">
        <ele>164.8</ele>
        <time>2019-11-23T07:57:58Z</time>
      </trkpt>
      <trkpt lat="56.88055492049" lon="14.755079760475">
        <ele>165.6</ele>
        <time>2019-11-23T07:58:07Z</time>
      </trkpt>
      <trkpt lat="56.880412176733" lon="14.755244632448">
        <ele>166</ele>
        <time>2019-11-23T07:58:13Z</time>
      </trkpt>
      <trkpt lat="56.88022551182" lon="14.755367930197">
        <ele>166</ele>
        <time>2019-11-23T07:58:21Z</time>
      </trkpt>
      <trkpt lat="56.880064830797" lon="14.755585943416">
        <ele>166.2</ele>
        <time>2019-11-23T07:58:28Z</time>
      </trkpt>
      <trkpt lat="56.879962990712" lon="14.755869083998">
        <ele>166.4</ele>
        <time>2019-11-23T07:58:35Z</time>
      </trkpt>
      <trkpt lat="56.879872801468" lon="14.756177202642">
        <ele>166.6</ele>
        <time>2019-11-23T07:58:42Z</time>
      </trkpt>
      <trkpt lat="56.879813625254" lon="14.756520944361">
        <ele>166.4</ele>
        <time>2019-11-23T07:58:49Z</time>
      </trkpt>
      <trkpt lat="56.879750593366" lon="14.756853538153">
        <ele>166.4</ele>
        <time>2019-11-23T07:58:56Z</time>
      </trkpt>
      <trkpt lat="56.879699296138" lon="14.757180516072">
        <ele>165.8</ele>
        <time>2019-11-23T07:59:03Z</time>
      </trkpt>
      <trkpt lat="56.879618997536" lon="14.757475139857">
        <ele>166.8</ele>
        <time>2019-11-23T07:59:10Z</time>
      </trkpt>
      <trkpt lat="56.879623523762" lon="14.757516211167">
        <ele>167.2</ele>
        <time>2019-11-23T07:59:11Z</time>
      </trkpt>
      <trkpt lat="56.87946946444" lon="14.757687369565">
        <ele>168.2</ele>
        <time>2019-11-23T07:59:18Z</time>
      </trkpt>
      <trkpt lat="56.879292522531" lon="14.757856516307">
        <ele>168</ele>
        <time>2019-11-23T07:59:26Z</time>
      </trkpt>
      <trkpt lat="56.879277938025" lon="14.75788727788">
        <ele>168.4</ele>
        <time>2019-11-23T07:59:27Z</time>
      </trkpt>
      <trkpt lat="56.879198058518" lon="14.75802977018">
        <ele>169.4</ele>
        <time>2019-11-23T07:59:31Z</time>
      </trkpt>
      <trkpt lat="56.879117592278" lon="14.758253231634">
        <ele>170.6</ele>
        <time>2019-11-23T07:59:37Z</time>
      </trkpt>
      <trkpt lat="56.878988678656" lon="14.758510220688">
        <ele>171</ele>
        <time>2019-11-23T07:59:44Z</time>
      </trkpt>
      <trkpt lat="56.878831769488" lon="14.758725132604">
        <ele>171</ele>
        <time>2019-11-23T07:59:51Z</time>
      </trkpt>
      <trkpt lat="56.878684331867" lon="14.758970051722">
        <ele>171.2</ele>
        <time>2019-11-23T07:59:59Z</time>
      </trkpt>
      <trkpt lat="56.878607888939" lon="14.759105670864">
        <ele>171.2</ele>
        <time>2019-11-23T08:00:03Z</time>
      </trkpt>
      <trkpt lat="56.878513424926" lon="14.75930884812">
        <ele>171.6</ele>
        <time>2019-11-23T08:00:08Z</time>
      </trkpt>
      <trkpt lat="56.878354085007" lon="14.759500123078">
        <ele>172</ele>
        <time>2019-11-23T08:00:15Z</time>
      </trkpt>
      <trkpt lat="56.878214777829" lon="14.759722997799">
        <ele>171.4</ele>
        <time>2019-11-23T08:00:21Z</time>
      </trkpt>
      <trkpt lat="56.878152081217" lon="14.759946291615">
        <ele>170.4</ele>
        <time>2019-11-23T08:00:26Z</time>
      </trkpt>
      <trkpt lat="56.87809315646" lon="14.760282070529">
        <ele>169.8</ele>
        <time>2019-11-23T08:00:32Z</time>
      </trkpt>
      <trkpt lat="56.878051917512" lon="14.760645342075">
        <ele>170.6</ele>
        <time>2019-11-23T08:00:39Z</time>
      </trkpt>
      <trkpt lat="56.877990478185" lon="14.760989335251">
        <ele>170.6</ele>
        <time>2019-11-23T08:00:45Z</time>
      </trkpt>
      <trkpt lat="56.87789115267" lon="14.761268871616">
        <ele>170.2</ele>
        <time>2019-11-23T08:00:51Z</time>
      </trkpt>
      <trkpt lat="56.877774895717" lon="14.761528961973">
        <ele>169.6</ele>
        <time>2019-11-23T08:00:57Z</time>
      </trkpt>
      <trkpt lat="56.877705745042" lon="14.761676148137">
        <ele>169.4</ele>
        <time>2019-11-23T08:01:01Z</time>
      </trkpt>
      <trkpt lat="56.877562246914" lon="14.761873206606">
        <ele>169</ele>
        <time>2019-11-23T08:01:08Z</time>
      </trkpt>
      <trkpt lat="56.877391675249" lon="14.762083592296">
        <ele>169.2</ele>
        <time>2019-11-23T08:01:16Z</time>
      </trkpt>
      <trkpt lat="56.877241471601" lon="14.762329936337">
        <ele>169.6</ele>
        <time>2019-11-23T08:01:23Z</time>
      </trkpt>
      <trkpt lat="56.877152539642" lon="14.762617603145">
        <ele>169.6</ele>
        <time>2019-11-23T08:01:30Z</time>
      </trkpt>
      <trkpt lat="56.877041898562" lon="14.76292479978">
        <ele>169.6</ele>
        <time>2019-11-23T08:01:37Z</time>
      </trkpt>
      <trkpt lat="56.876980123959" lon="14.763080032568">
        <ele>169.6</ele>
        <time>2019-11-23T08:01:41Z</time>
      </trkpt>
      <trkpt lat="56.876852970536" lon="14.763323526763">
        <ele>169.6</ele>
        <time>2019-11-23T08:01:49Z</time>
      </trkpt>
      <trkpt lat="56.876731181529" lon="14.763598872178">
        <ele>170.2</ele>
        <time>2019-11-23T08:01:56Z</time>
      </trkpt>
      <trkpt lat="56.876642417208" lon="14.763752009491">
        <ele>170.4</ele>
        <time>2019-11-23T08:02:00Z</time>
      </trkpt>
      <trkpt lat="56.876489447533" lon="14.763941943345">
        <ele>170</ele>
        <time>2019-11-23T08:02:08Z</time>
      </trkpt>
      <trkpt lat="56.876348212518" lon="14.764201446969">
        <ele>170</ele>
        <time>2019-11-23T08:02:15Z</time>
      </trkpt>
      <trkpt lat="56.876228099891" lon="14.764463297525">
        <ele>170</ele>
        <time>2019-11-23T08:02:20Z</time>
      </trkpt>
      <trkpt lat="56.87610748435" lon="14.76472774647">
        <ele>169.8</ele>
        <time>2019-11-23T08:02:27Z</time>
      </trkpt>
      <trkpt lat="56.876010589586" lon="14.76483671117">
        <ele>169.4</ele>
        <time>2019-11-23T08:02:31Z</time>
      </trkpt>
      <trkpt lat="56.875833228582" lon="14.764911058623">
        <ele>169.4</ele>
        <time>2019-11-23T08:02:38Z</time>
      </trkpt>
      <trkpt lat="56.875647401859" lon="14.764891696434">
        <ele>168.8</ele>
        <time>2019-11-23T08:02:44Z</time>
      </trkpt>
      <trkpt lat="56.875448331734" lon="14.764818941542">
        <ele>168.4</ele>
        <time>2019-11-23T08:02:51Z</time>
      </trkpt>
      <trkpt lat="56.875274910223" lon="14.764710815032">
        <ele>168.2</ele>
        <time>2019-11-23T08:02:58Z</time>
      </trkpt>
      <trkpt lat="56.8750974654" lon="14.764605035454">
        <ele>167.8</ele>
        <time>2019-11-23T08:03:04Z</time>
      </trkpt>
      <trkpt lat="56.87491893093" lon="14.764530185087">
        <ele>167.6</ele>
        <time>2019-11-23T08:03:11Z</time>
      </trkpt>
      <trkpt lat="56.874865119132" lon="14.764531274734">
        <ele>167.4</ele>
        <time>2019-11-23T08:03:13Z</time>
      </trkpt>
      <trkpt lat="56.874722123918" lon="14.764658009062">
        <ele>166.8</ele>
        <time>2019-11-23T08:03:20Z</time>
      </trkpt>
      <trkpt lat="56.87457359665" lon="14.764842410862">
        <ele>166.6</ele>
        <time>2019-11-23T08:03:27Z</time>
      </trkpt>
      <trkpt lat="56.874379220389" lon="14.764928660613">
        <ele>166.6</ele>
        <time>2019-11-23T08:03:33Z</time>
      </trkpt>
      <trkpt lat="56.874240332306" lon="14.764900581248">
        <ele>166.2</ele>
        <time>2019-11-23T08:03:37Z</time>
      </trkpt>
      <trkpt lat="56.874049476443" lon="14.764880045593">
        <ele>166.8</ele>
        <time>2019-11-23T08:03:43Z</time>
      </trkpt>
      <trkpt lat="56.873864990824" lon="14.764945759689">
        <ele>167.4</ele>
        <time>2019-11-23T08:03:50Z</time>
      </trkpt>
      <trkpt lat="56.873790056638" lon="14.765248681555">
        <ele>167.2</ele>
        <time>2019-11-23T08:03:58Z</time>
      </trkpt>
      <trkpt lat="56.873751080803" lon="14.765603906477">
        <ele>167</ele>
        <time>2019-11-23T08:04:05Z</time>
      </trkpt>
      <trkpt lat="56.873733646451" lon="14.765964998729">
        <ele>167.4</ele>
        <time>2019-11-23T08:04:13Z</time>
      </trkpt>
      <trkpt lat="56.873707830199" lon="14.766313350493">
        <ele>168.2</ele>
        <time>2019-11-23T08:04:21Z</time>
      </trkpt>
      <trkpt lat="56.873707662561" lon="14.766387195032">
        <ele>168.4</ele>
        <time>2019-11-23T08:04:23Z</time>
      </trkpt>
      <trkpt lat="56.873699867394" lon="14.766565980959">
        <ele>169.2</ele>
        <time>2019-11-23T08:04:27Z</time>
      </trkpt>
      <trkpt lat="56.873708416932" lon="14.766701516282">
        <ele>169.4</ele>
        <time>2019-11-23T08:04:30Z</time>
      </trkpt>
      <trkpt lat="56.873713446072" lon="14.766741497945">
        <ele>169.6</ele>
        <time>2019-11-23T08:04:31Z</time>
      </trkpt>
      <trkpt lat="56.873753679192" lon="14.766997481171">
        <ele>169.4</ele>
        <time>2019-11-23T08:04:36Z</time>
      </trkpt>
      <trkpt lat="56.873785614231" lon="14.767340803795">
        <ele>169</ele>
        <time>2019-11-23T08:04:43Z</time>
      </trkpt>
      <trkpt lat="56.87376222873" lon="14.767545322155">
        <ele>168.4</ele>
        <time>2019-11-23T08:04:47Z</time>
      </trkpt>
      <trkpt lat="56.873726521836" lon="14.767731148878">
        <ele>167.2</ele>
        <time>2019-11-23T08:04:51Z</time>
      </trkpt>
      <trkpt lat="56.873684109422" lon="14.768058210616">
        <ele>166.2</ele>
        <time>2019-11-23T08:04:57Z</time>
      </trkpt>
      <trkpt lat="56.873669105821" lon="14.768358617912">
        <ele>165.2</ele>
        <time>2019-11-23T08:05:02Z</time>
      </trkpt>
      <trkpt lat="56.87362979471" lon="14.768719793983">
        <ele>165.2</ele>
        <time>2019-11-23T08:05:09Z</time>
      </trkpt>
      <trkpt lat="56.873522674028" lon="14.768973597915">
        <ele>166.2</ele>
        <time>2019-11-23T08:05:16Z</time>
      </trkpt>
      <trkpt lat="56.873406668532" lon="14.769152467661">
        <ele>167.4</ele>
        <time>2019-11-23T08:05:23Z</time>
      </trkpt>
      <trkpt lat="56.873301559506" lon="14.769434434777">
        <ele>168</ele>
        <time>2019-11-23T08:05:30Z</time>
      </trkpt>
      <trkpt lat="56.873182368888" lon="14.76969737498">
        <ele>167.6</ele>
        <time>2019-11-23T08:05:38Z</time>
      </trkpt>
      <trkpt lat="56.873038200208" lon="14.769954447853">
        <ele>167.4</ele>
        <time>2019-11-23T08:05:45Z</time>
      </trkpt>
      <trkpt lat="56.872910711509" lon="14.770230296182">
        <ele>167.2</ele>
        <time>2019-11-23T08:05:53Z</time>
      </trkpt>
      <trkpt lat="56.872785066828" lon="14.770477478413">
        <ele>167.8</ele>
        <time>2019-11-23T08:06:00Z</time>
      </trkpt>
      <trkpt lat="56.872613740792" lon="14.770708651215">
        <ele>167.8</ele>
        <time>2019-11-23T08:06:07Z</time>
      </trkpt>
      <trkpt lat="56.872431685924" lon="14.770614103383">
        <ele>168.2</ele>
        <time>2019-11-23T08:06:13Z</time>
      </trkpt>
      <trkpt lat="56.872291289099" lon="14.770401119304">
        <ele>168.2</ele>
        <time>2019-11-23T08:06:19Z</time>
      </trkpt>
      <trkpt lat="56.872145444039" lon="14.770145303716">
        <ele>168</ele>
        <time>2019-11-23T08:06:26Z</time>
      </trkpt>
      <trkpt lat="56.872013093838" lon="14.769915472018">
        <ele>167.8</ele>
        <time>2019-11-23T08:06:32Z</time>
      </trkpt>
      <trkpt lat="56.871862471095" lon="14.769685053587">
        <ele>167.8</ele>
        <time>2019-11-23T08:06:39Z</time>
      </trkpt>
      <trkpt lat="56.871711513076" lon="14.769491431697">
        <ele>167.6</ele>
        <time>2019-11-23T08:06:46Z</time>
      </trkpt>
      <trkpt lat="56.871532727149" lon="14.76936293717">
        <ele>167.6</ele>
        <time>2019-11-23T08:06:54Z</time>
      </trkpt>
      <trkpt lat="56.871338099431" lon="14.769284817862">
        <ele>167.4</ele>
        <time>2019-11-23T08:07:01Z</time>
      </trkpt>
      <trkpt lat="56.871142130609" lon="14.769391770906">
        <ele>167.4</ele>
        <time>2019-11-23T08:07:10Z</time>
      </trkpt>
      <trkpt lat="56.870967451813" lon="14.769504256004">
        <ele>167.8</ele>
        <time>2019-11-23T08:07:17Z</time>
      </trkpt>
      <trkpt lat="56.87077575776" lon="14.769620680595">
        <ele>167.6</ele>
        <time>2019-11-23T08:07:25Z</time>
      </trkpt>
      <trkpt lat="56.870601330421" lon="14.769768704949">
        <ele>168.2</ele>
        <time>2019-11-23T08:07:33Z</time>
      </trkpt>
      <trkpt lat="56.870465292184" lon="14.769894684906">
        <ele>168.4</ele>
        <time>2019-11-23T08:07:38Z</time>
      </trkpt>
      <trkpt lat="56.870299833478" lon="14.770039440319">
        <ele>168.4</ele>
        <time>2019-11-23T08:07:44Z</time>
      </trkpt>
      <trkpt lat="56.870150216563" lon="14.770268769103">
        <ele>169</ele>
        <time>2019-11-23T08:07:52Z</time>
      </trkpt>
      <trkpt lat="56.870129597089" lon="14.770424253348">
        <ele>169.6</ele>
        <time>2019-11-23T08:07:56Z</time>
      </trkpt>
      <trkpt lat="56.870144013957" lon="14.770512598574">
        <ele>170.6</ele>
        <time>2019-11-23T08:07:58Z</time>
      </trkpt>
      <trkpt lat="56.870175865177" lon="14.770616366496">
        <ele>171.6</ele>
        <time>2019-11-23T08:08:01Z</time>
      </trkpt>
      <trkpt lat="56.87026194729" lon="14.770857681397">
        <ele>172.8</ele>
        <time>2019-11-23T08:08:08Z</time>
      </trkpt>
      <trkpt lat="56.870320369133" lon="14.771009896701">
        <ele>173</ele>
        <time>2019-11-23T08:08:12Z</time>
      </trkpt>
      <trkpt lat="56.870356998036" lon="14.771177031787">
        <ele>173.8</ele>
        <time>2019-11-23T08:08:16Z</time>
      </trkpt>
      <trkpt lat="56.870413994956" lon="14.771476349436">
        <ele>174.8</ele>
        <time>2019-11-23T08:08:24Z</time>
      </trkpt>
      <trkpt lat="56.870421287209" lon="14.771558743513">
        <ele>175.2</ele>
        <time>2019-11-23T08:08:26Z</time>
      </trkpt>
      <trkpt lat="56.87050669877" lon="14.771886811079">
        <ele>175</ele>
        <time>2019-11-23T08:08:34Z</time>
      </trkpt>
      <trkpt lat="56.870367307773" lon="14.772120917546">
        <ele>174.4</ele>
        <time>2019-11-23T08:08:40Z</time>
      </trkpt>
      <trkpt lat="56.870196149375" lon="14.772273216669">
        <ele>173.8</ele>
        <time>2019-11-23T08:08:46Z</time>
      </trkpt>
      <trkpt lat="56.870145355061" lon="14.772312108685">
        <ele>173.8</ele>
        <time>2019-11-23T08:08:48Z</time>
      </trkpt>
      <trkpt lat="56.869968664609" lon="14.772473963174">
        <ele>173.6</ele>
        <time>2019-11-23T08:08:55Z</time>
      </trkpt>
      <trkpt lat="56.869786525922" lon="14.772549316455">
        <ele>173</ele>
        <time>2019-11-23T08:09:02Z</time>
      </trkpt>
      <trkpt lat="56.869687116588" lon="14.772579994209">
        <ele>172.6</ele>
        <time>2019-11-23T08:09:06Z</time>
      </trkpt>
      <trkpt lat="56.869507157195" lon="14.772663645571">
        <ele>172</ele>
        <time>2019-11-23T08:09:13Z</time>
      </trkpt>
      <trkpt lat="56.869394504459" lon="14.772723492337">
        <ele>171.6</ele>
        <time>2019-11-23T08:09:17Z</time>
      </trkpt>
      <trkpt lat="56.869290401261" lon="14.772770011882">
        <ele>170.4</ele>
        <time>2019-11-23T08:09:21Z</time>
      </trkpt>
      <trkpt lat="56.86908680491" lon="14.772826924983">
        <ele>169.6</ele>
        <time>2019-11-23T08:09:28Z</time>
      </trkpt>
      <trkpt lat="56.869041375012" lon="14.772818291626">
        <ele>169.4</ele>
        <time>2019-11-23T08:09:30Z</time>
      </trkpt>
      <trkpt lat="56.868852866081" lon="14.77282885282">
        <ele>168.6</ele>
        <time>2019-11-23T08:09:36Z</time>
      </trkpt>
      <trkpt lat="56.868798383731" lon="14.772843856421">
        <ele>168.2</ele>
        <time>2019-11-23T08:09:38Z</time>
      </trkpt>
      <trkpt lat="56.868622280012" lon="14.772900769522">
        <ele>168</ele>
        <time>2019-11-23T08:09:45Z</time>
      </trkpt>
      <trkpt lat="56.868450283424" lon="14.773002861064">
        <ele>167.6</ele>
        <time>2019-11-23T08:09:52Z</time>
      </trkpt>
      <trkpt lat="56.868272587144" lon="14.773181563172">
        <ele>167.2</ele>
        <time>2019-11-23T08:10:00Z</time>
      </trkpt>
      <trkpt lat="56.868108134266" lon="14.773326486223">
        <ele>167</ele>
        <time>2019-11-23T08:10:06Z</time>
      </trkpt>
      <trkpt lat="56.867944938673" lon="14.773487837798">
        <ele>167.2</ele>
        <time>2019-11-23T08:10:12Z</time>
      </trkpt>
      <trkpt lat="56.867755172457" lon="14.773609794443">
        <ele>167.2</ele>
        <time>2019-11-23T08:10:19Z</time>
      </trkpt>
      <trkpt lat="56.867550235002" lon="14.773669305933">
        <ele>166.8</ele>
        <time>2019-11-23T08:10:26Z</time>
      </trkpt>
      <trkpt lat="56.867355272008" lon="14.77366704282">
        <ele>166.4</ele>
        <time>2019-11-23T08:10:33Z</time>
      </trkpt>
      <trkpt lat="56.867176234624" lon="14.773633263763">
        <ele>166.2</ele>
        <time>2019-11-23T08:10:40Z</time>
      </trkpt>
      <trkpt lat="56.866996107593" lon="14.773538883569">
        <ele>166.6</ele>
        <time>2019-11-23T08:10:46Z</time>
      </trkpt>
      <trkpt lat="56.866818327494" lon="14.773445257746">
        <ele>167.2</ele>
        <time>2019-11-23T08:10:52Z</time>
      </trkpt>
      <trkpt lat="56.86665605391" lon="14.773278038841">
        <ele>167.2</ele>
        <time>2019-11-23T08:10:59Z</time>
      </trkpt>
      <trkpt lat="56.866571815815" lon="14.772980900486">
        <ele>167.8</ele>
        <time>2019-11-23T08:11:05Z</time>
      </trkpt>
      <trkpt lat="56.866485482245" lon="14.772685773787">
        <ele>167.8</ele>
        <time>2019-11-23T08:11:11Z</time>
      </trkpt>
      <trkpt lat="56.866417337398" lon="14.77237958298">
        <ele>167.2</ele>
        <time>2019-11-23T08:11:18Z</time>
      </trkpt>
      <trkpt lat="56.866286160663" lon="14.772087641403">
        <ele>166.6</ele>
        <time>2019-11-23T08:11:26Z</time>
      </trkpt>
      <trkpt lat="56.86612380326" lon="14.771929223493">
        <ele>167.2</ele>
        <time>2019-11-23T08:11:33Z</time>
      </trkpt>
      <trkpt lat="56.865944933514" lon="14.771786898831">
        <ele>167.2</ele>
        <time>2019-11-23T08:11:40Z</time>
      </trkpt>
      <trkpt lat="56.86581451115" lon="14.771555893667">
        <ele>167</ele>
        <time>2019-11-23T08:11:46Z</time>
      </trkpt>
      <trkpt lat="56.865683502053" lon="14.771326564883">
        <ele>166.4</ele>
        <time>2019-11-23T08:11:53Z</time>
      </trkpt>
      <trkpt lat="56.865657015249" lon="14.771274429465">
        <ele>166</ele>
        <time>2019-11-23T08:11:55Z</time>
      </trkpt>
      <trkpt lat="56.865586774927" lon="14.771198070356">
        <ele>165.8</ele>
        <time>2019-11-23T08:11:59Z</time>
      </trkpt>
      <trkpt lat="56.865414107787" lon="14.771100002126">
        <ele>165.6</ele>
        <time>2019-11-23T08:12:05Z</time>
      </trkpt>
      <trkpt lat="56.865212271635" lon="14.771081813403">
        <ele>166.2</ele>
        <time>2019-11-23T08:12:12Z</time>
      </trkpt>
      <trkpt lat="56.865030635862" lon="14.771116514469">
        <ele>166.4</ele>
        <time>2019-11-23T08:12:21Z</time>
      </trkpt>
      <trkpt lat="56.864839277085" lon="14.771225982083">
        <ele>167</ele>
        <time>2019-11-23T08:12:27Z</time>
      </trkpt>
      <trkpt lat="56.864773982084" lon="14.771278620415">
        <ele>167</ele>
        <time>2019-11-23T08:12:29Z</time>
      </trkpt>
      <trkpt lat="56.864584383506" lon="14.771381969242">
        <ele>167</ele>
        <time>2019-11-23T08:12:36Z</time>
      </trkpt>
      <trkpt lat="56.864400233163" lon="14.771409964788">
        <ele>167.2</ele>
        <time>2019-11-23T08:12:43Z</time>
      </trkpt>
      <trkpt lat="56.864291268463" lon="14.77134441833">
        <ele>168</ele>
        <time>2019-11-23T08:12:47Z</time>
      </trkpt>
      <trkpt lat="56.8641087945" lon="14.771189688456">
        <ele>169</ele>
        <time>2019-11-23T08:12:55Z</time>
      </trkpt>
      <trkpt lat="56.863935540627" lon="14.771092039321">
        <ele>168.6</ele>
        <time>2019-11-23T08:13:02Z</time>
      </trkpt>
      <trkpt lat="56.863809393032" lon="14.771021128447">
        <ele>168.2</ele>
        <time>2019-11-23T08:13:07Z</time>
      </trkpt>
      <trkpt lat="56.863639827195" lon="14.770874026102">
        <ele>167.2</ele>
        <time>2019-11-23T08:13:13Z</time>
      </trkpt>
      <trkpt lat="56.863466070408" lon="14.770741172987">
        <ele>167.4</ele>
        <time>2019-11-23T08:13:20Z</time>
      </trkpt>
      <trkpt lat="56.863285859558" lon="14.770772437474">
        <ele>168</ele>
        <time>2019-11-23T08:13:27Z</time>
      </trkpt>
      <trkpt lat="56.863120736128" lon="14.770917360525">
        <ele>167.8</ele>
        <time>2019-11-23T08:13:34Z</time>
      </trkpt>
      <trkpt lat="56.862928287704" lon="14.771022469551">
        <ele>167.2</ele>
        <time>2019-11-23T08:13:41Z</time>
      </trkpt>
      <trkpt lat="56.862811863113" lon="14.771061696843">
        <ele>167.2</ele>
        <time>2019-11-23T08:13:46Z</time>
      </trkpt>
      <trkpt lat="56.862631149349" lon="14.771177869977">
        <ele>167.6</ele>
        <time>2019-11-23T08:13:54Z</time>
      </trkpt>
      <trkpt lat="56.862529476902" lon="14.77119186775">
        <ele>168</ele>
        <time>2019-11-23T08:13:58Z</time>
      </trkpt>
      <trkpt lat="56.862365443119" lon="14.771205530247">
        <ele>168.4</ele>
        <time>2019-11-23T08:14:06Z</time>
      </trkpt>
      <trkpt lat="56.862265111776" lon="14.771220030934">
        <ele>169.2</ele>
        <time>2019-11-23T08:14:10Z</time>
      </trkpt>
      <trkpt lat="56.862152878135" lon="14.77123210087">
        <ele>170.4</ele>
        <time>2019-11-23T08:14:14Z</time>
      </trkpt>
      <trkpt lat="56.862019857382" lon="14.771265293194">
        <ele>171.4</ele>
        <time>2019-11-23T08:14:20Z</time>
      </trkpt>
      <trkpt lat="56.861978199339" lon="14.771274178008">
        <ele>171.2</ele>
        <time>2019-11-23T08:14:22Z</time>
      </trkpt>
      <trkpt lat="56.8617953901" lon="14.771335952611">
        <ele>171.4</ele>
        <time>2019-11-23T08:14:28Z</time>
      </trkpt>
      <trkpt lat="56.861589111541" lon="14.771310974549">
        <ele>171.2</ele>
        <time>2019-11-23T08:14:36Z</time>
      </trkpt>
      <trkpt lat="56.861484505429" lon="14.771257078932">
        <ele>170.2</ele>
        <time>2019-11-23T08:14:39Z</time>
      </trkpt>
      <trkpt lat="56.861312005927" lon="14.771220533848">
        <ele>169.2</ele>
        <time>2019-11-23T08:14:44Z</time>
      </trkpt>
      <trkpt lat="56.86119105511" lon="14.771177953796">
        <ele>168.2</ele>
        <time>2019-11-23T08:14:49Z</time>
      </trkpt>
      <trkpt lat="56.861019729074" lon="14.770995144557">
        <ele>167.4</ele>
        <time>2019-11-23T08:14:56Z</time>
      </trkpt>
      <trkpt lat="56.860914703867" lon="14.77092364695">
        <ele>167</ele>
        <time>2019-11-23T08:14:59Z</time>
      </trkpt>
      <trkpt lat="56.860739857433" lon="14.770755506036">
        <ele>166</ele>
        <time>2019-11-23T08:15:06Z</time>
      </trkpt>
      <trkpt lat="56.860718651226" lon="14.770728264861">
        <ele>165.8</ele>
        <time>2019-11-23T08:15:07Z</time>
      </trkpt>
      <trkpt lat="56.860554198348" lon="14.770639165264">
        <ele>165.6</ele>
        <time>2019-11-23T08:15:14Z</time>
      </trkpt>
      <trkpt lat="56.860368287806" lon="14.770695994546">
        <ele>165.8</ele>
        <time>2019-11-23T08:15:22Z</time>
      </trkpt>
      <trkpt lat="56.860218670891" lon="14.770952899781">
        <ele>166.2</ele>
        <time>2019-11-23T08:15:31Z</time>
      </trkpt>
      <trkpt lat="56.860182377264" lon="14.771057841169">
        <ele>166.4</ele>
        <time>2019-11-23T08:15:34Z</time>
      </trkpt>
      <trkpt lat="56.860101324291" lon="14.771379706129">
        <ele>166</ele>
        <time>2019-11-23T08:15:40Z</time>
      </trkpt>
      <trkpt lat="56.860077016781" lon="14.771690506981">
        <ele>166.6</ele>
        <time>2019-11-23T08:15:49Z</time>
      </trkpt>
      <trkpt lat="56.860080872455" lon="14.771749431738">
        <ele>167</ele>
        <time>2019-11-23T08:15:51Z</time>
      </trkpt>
      <trkpt lat="56.860110963476" lon="14.772078169856">
        <ele>167.6</ele>
        <time>2019-11-23T08:15:58Z</time>
      </trkpt>
      <trkpt lat="56.860143904343" lon="14.772157378811">
        <ele>168</ele>
        <time>2019-11-23T08:16:00Z</time>
      </trkpt>
      <trkpt lat="56.860208109697" lon="14.772455606813">
        <ele>168.4</ele>
        <time>2019-11-23T08:16:08Z</time>
      </trkpt>
      <trkpt lat="56.860202410005" lon="14.772492068078">
        <ele>168.4</ele>
        <time>2019-11-23T08:16:09Z</time>
      </trkpt>
      <trkpt lat="56.860201487996" lon="14.772642355545">
        <ele>169.2</ele>
        <time>2019-11-23T08:16:12Z</time>
      </trkpt>
      <trkpt lat="56.8602028291" lon="14.77290931906">
        <ele>169.2</ele>
        <time>2019-11-23T08:16:17Z</time>
      </trkpt>
      <trkpt lat="56.860272901784" lon="14.773241409938">
        <ele>168.4</ele>
        <time>2019-11-23T08:16:23Z</time>
      </trkpt>
      <trkpt lat="56.860285306996" lon="14.77329237189">
        <ele>168.2</ele>
        <time>2019-11-23T08:16:24Z</time>
      </trkpt>
      <trkpt lat="56.86030257371" lon="14.773389434292">
        <ele>168</ele>
        <time>2019-11-23T08:16:26Z</time>
      </trkpt>
      <trkpt lat="56.860394439334" lon="14.773679028937">
        <ele>167.6</ele>
        <time>2019-11-23T08:16:33Z</time>
      </trkpt>
      <trkpt lat="56.860552521968" lon="14.773856809036">
        <ele>167.2</ele>
        <time>2019-11-23T08:16:41Z</time>
      </trkpt>
      <trkpt lat="56.86059929297" lon="14.773901400744">
        <ele>167</ele>
        <time>2019-11-23T08:16:43Z</time>
      </trkpt>
      <trkpt lat="56.860778833268" lon="14.773941466226">
        <ele>166.6</ele>
        <time>2019-11-23T08:16:52Z</time>
      </trkpt>
      <trkpt lat="56.860837674206" lon="14.773920092381">
        <ele>166.8</ele>
        <time>2019-11-23T08:16:56Z</time>
      </trkpt>
      <trkpt lat="56.861021405454" lon="14.774017490059">
        <ele>167</ele>
        <time>2019-11-23T08:17:04Z</time>
      </trkpt>
      <trkpt lat="56.861047473163" lon="14.774059986292">
        <ele>166.8</ele>
        <time>2019-11-23T08:17:06Z</time>
      </trkpt>
      <trkpt lat="56.861198012087" lon="14.774274227656">
        <ele>166.6</ele>
        <time>2019-11-23T08:17:13Z</time>
      </trkpt>
      <trkpt lat="56.861239753949" lon="14.77437112242">
        <ele>166.6</ele>
        <time>2019-11-23T08:17:15Z</time>
      </trkpt>
      <trkpt lat="56.861341258758" lon="14.774671697354">
        <ele>167.2</ele>
        <time>2019-11-23T08:17:23Z</time>
      </trkpt>
      <trkpt lat="56.86139222071" lon="14.774716959614">
        <ele>167.2</ele>
        <time>2019-11-23T08:17:25Z</time>
      </trkpt>
      <trkpt lat="56.861464556507" lon="14.775034465986">
        <ele>167.6</ele>
        <time>2019-11-23T08:17:32Z</time>
      </trkpt>
      <trkpt lat="56.86147603971" lon="14.775116692425">
        <ele>167.8</ele>
        <time>2019-11-23T08:17:34Z</time>
      </trkpt>
      <trkpt lat="56.861500263401" lon="14.775201181977">
        <ele>167.8</ele>
        <time>2019-11-23T08:17:36Z</time>
      </trkpt>
      <trkpt lat="56.861516356649" lon="14.775328503038">
        <ele>168</ele>
        <time>2019-11-23T08:17:38Z</time>
      </trkpt>
      <trkpt lat="56.861529767689" lon="14.775371334547">
        <ele>168</ele>
        <time>2019-11-23T08:17:39Z</time>
      </trkpt>
      <trkpt lat="56.861614508698" lon="14.77553620652">
        <ele>168.4</ele>
        <time>2019-11-23T08:17:44Z</time>
      </trkpt>
      <trkpt lat="56.861740991569" lon="14.775639974442">
        <ele>169.2</ele>
        <time>2019-11-23T08:17:49Z</time>
      </trkpt>
      <trkpt lat="56.861787930209" lon="14.775672747671">
        <ele>169.4</ele>
        <time>2019-11-23T08:17:51Z</time>
      </trkpt>
      <trkpt lat="56.861917598202" lon="14.775913559658">
        <ele>169.6</ele>
        <time>2019-11-23T08:17:58Z</time>
      </trkpt>
      <trkpt lat="56.862029412748" lon="14.776207429072">
        <ele>168.8</ele>
        <time>2019-11-23T08:18:05Z</time>
      </trkpt>
      <trkpt lat="56.862063275624" lon="14.776439440064">
        <ele>168.4</ele>
        <time>2019-11-23T08:18:09Z</time>
      </trkpt>
      <trkpt lat="56.862087331677" lon="14.776553685361">
        <ele>168</ele>
        <time>2019-11-23T08:18:12Z</time>
      </trkpt>
      <trkpt lat="56.862146926986" lon="14.776857948331">
        <ele>167.8</ele>
        <time>2019-11-23T08:18:19Z</time>
      </trkpt>
      <trkpt lat="56.862163271691" lon="14.776948808127">
        <ele>167.8</ele>
        <time>2019-11-23T08:18:21Z</time>
      </trkpt>
      <trkpt lat="56.862211216159" lon="14.777116027032">
        <ele>167.4</ele>
        <time>2019-11-23T08:18:26Z</time>
      </trkpt>
      <trkpt lat="56.86229662772" lon="14.777302524307">
        <ele>167</ele>
        <time>2019-11-23T08:18:31Z</time>
      </trkpt>
      <trkpt lat="56.862432749776" lon="14.777555322411">
        <ele>166.8</ele>
        <time>2019-11-23T08:18:37Z</time>
      </trkpt>
      <trkpt lat="56.862586557641" lon="14.777779035322">
        <ele>166.8</ele>
        <time>2019-11-23T08:18:44Z</time>
      </trkpt>
      <trkpt lat="56.862703652784" lon="14.778039460955">
        <ele>167.2</ele>
        <time>2019-11-23T08:18:50Z</time>
      </trkpt>
      <trkpt lat="56.862794596399" lon="14.778302065882">
        <ele>167.6</ele>
        <time>2019-11-23T08:18:56Z</time>
      </trkpt>
      <trkpt lat="56.86286575873" lon="14.778439864318">
        <ele>168</ele>
        <time>2019-11-23T08:19:00Z</time>
      </trkpt>
      <trkpt lat="56.862975477801" lon="14.778735661569">
        <ele>167.2</ele>
        <time>2019-11-23T08:19:07Z</time>
      </trkpt>
      <trkpt lat="56.863102212129" lon="14.778993321175">
        <ele>166.4</ele>
        <time>2019-11-23T08:19:14Z</time>
      </trkpt>
      <trkpt lat="56.863154850461" lon="14.779200437924">
        <ele>166</ele>
        <time>2019-11-23T08:19:20Z</time>
      </trkpt>
      <trkpt lat="56.863329110162" lon="14.779307055692">
        <ele>166.8</ele>
        <time>2019-11-23T08:19:28Z</time>
      </trkpt>
      <trkpt lat="56.863356351337" lon="14.779341840577">
        <ele>166.8</ele>
        <time>2019-11-23T08:19:30Z</time>
      </trkpt>
      <trkpt lat="56.863401026864" lon="14.779359610205">
        <ele>167</ele>
        <time>2019-11-23T08:19:32Z</time>
      </trkpt>
      <trkpt lat="56.863554331815" lon="14.779549041145">
        <ele>166.6</ele>
        <time>2019-11-23T08:19:39Z</time>
      </trkpt>
      <trkpt lat="56.863632199666" lon="14.779618862372">
        <ele>166</ele>
        <time>2019-11-23T08:19:42Z</time>
      </trkpt>
      <trkpt lat="56.863786761902" lon="14.779755068247">
        <ele>165</ele>
        <time>2019-11-23T08:19:46Z</time>
      </trkpt>
      <trkpt lat="56.863917268085" lon="14.780000322641">
        <ele>164</ele>
        <time>2019-11-23T08:19:54Z</time>
      </trkpt>
      <trkpt lat="56.863921459035" lon="14.780030916576">
        <ele>163.8</ele>
        <time>2019-11-23T08:19:55Z</time>
      </trkpt>
      <trkpt lat="56.864049702105" lon="14.78011607668">
        <ele>163.8</ele>
        <time>2019-11-23T08:20:00Z</time>
      </trkpt>
      <trkpt lat="56.864245168013" lon="14.780057487199">
        <ele>164</ele>
        <time>2019-11-23T08:20:07Z</time>
      </trkpt>
      <trkpt lat="56.864407022502" lon="14.779908373198">
        <ele>164</ele>
        <time>2019-11-23T08:20:14Z</time>
      </trkpt>
      <trkpt lat="56.86459578289" lon="14.779797815937">
        <ele>164.2</ele>
        <time>2019-11-23T08:20:22Z</time>
      </trkpt>
      <trkpt lat="56.864765348727" lon="14.779797648299">
        <ele>165</ele>
        <time>2019-11-23T08:20:29Z</time>
      </trkpt>
      <trkpt lat="56.864947068319" lon="14.779794630815">
        <ele>166</ele>
        <time>2019-11-23T08:20:35Z</time>
      </trkpt>
      <trkpt lat="56.864976991702" lon="14.779792619159">
        <ele>166</ele>
        <time>2019-11-23T08:20:36Z</time>
      </trkpt>
      <trkpt lat="56.86516742847" lon="14.779765377984">
        <ele>166</ele>
        <time>2019-11-23T08:20:43Z</time>
      </trkpt>
      <trkpt lat="56.865349064243" lon="14.77980091724">
        <ele>165.8</ele>
        <time>2019-11-23T08:20:51Z</time>
      </trkpt>
      <trkpt lat="56.865539081916" lon="14.77983612122">
        <ele>165.6</ele>
        <time>2019-11-23T08:20:59Z</time>
      </trkpt>
      <trkpt lat="56.865741337163" lon="14.779826482035">
        <ele>165.2</ele>
        <time>2019-11-23T08:21:05Z</time>
      </trkpt>
      <trkpt lat="56.865942251306" lon="14.779792032426">
        <ele>165.4</ele>
        <time>2019-11-23T08:21:11Z</time>
      </trkpt>
      <trkpt lat="56.866151714987" lon="14.779834109564">
        <ele>165.8</ele>
        <time>2019-11-23T08:21:19Z</time>
      </trkpt>
      <trkpt lat="56.86633754171" lon="14.779872582485">
        <ele>166</ele>
        <time>2019-11-23T08:21:26Z</time>
      </trkpt>
      <trkpt lat="56.866520937682" lon="14.779913821433">
        <ele>166.2</ele>
        <time>2019-11-23T08:21:34Z</time>
      </trkpt>
      <trkpt lat="56.866709446613" lon="14.77989814728">
        <ele>166.6</ele>
        <time>2019-11-23T08:21:40Z</time>
      </trkpt>
      <trkpt lat="56.866841461538" lon="14.779903344058">
        <ele>167</ele>
        <time>2019-11-23T08:21:46Z</time>
      </trkpt>
      <trkpt lat="56.867003651303" lon="14.779927064835">
        <ele>168.2</ele>
        <time>2019-11-23T08:21:54Z</time>
      </trkpt>
      <trkpt lat="56.867191238225" lon="14.779941649341">
        <ele>168.2</ele>
        <time>2019-11-23T08:22:01Z</time>
      </trkpt>
      <trkpt lat="56.867381842631" lon="14.779944499187">
        <ele>168.6</ele>
        <time>2019-11-23T08:22:07Z</time>
      </trkpt>
      <trkpt lat="56.867583846421" lon="14.779979535529">
        <ele>168.4</ele>
        <time>2019-11-23T08:22:14Z</time>
      </trkpt>
      <trkpt lat="56.867769924601" lon="14.779980625176">
        <ele>168.2</ele>
        <time>2019-11-23T08:22:21Z</time>
      </trkpt>
      <trkpt lat="56.867963881767" lon="14.779996802243">
        <ele>168.2</ele>
        <time>2019-11-23T08:22:29Z</time>
      </trkpt>
      <trkpt lat="56.8681404884" lon="14.780056732828">
        <ele>168</ele>
        <time>2019-11-23T08:22:36Z</time>
      </trkpt>
      <trkpt lat="56.868294463903" lon="14.7802485107">
        <ele>167.8</ele>
        <time>2019-11-23T08:22:44Z</time>
      </trkpt>
      <trkpt lat="56.868307958762" lon="14.780282625033">
        <ele>167.6</ele>
        <time>2019-11-23T08:22:45Z</time>
      </trkpt>
      <trkpt lat="56.868423126068" lon="14.780569118375">
        <ele>167.6</ele>
        <time>2019-11-23T08:22:53Z</time>
      </trkpt>
      <trkpt lat="56.86845229508" lon="14.780653607927">
        <ele>167.6</ele>
        <time>2019-11-23T08:22:55Z</time>
      </trkpt>
      <trkpt lat="56.868529492379" lon="14.780981172579">
        <ele>168.2</ele>
        <time>2019-11-23T08:23:02Z</time>
      </trkpt>
      <trkpt lat="56.868600487072" lon="14.781323154099">
        <ele>167.8</ele>
        <time>2019-11-23T08:23:09Z</time>
      </trkpt>
      <trkpt lat="56.868696292189" lon="14.781627584707">
        <ele>167.8</ele>
        <time>2019-11-23T08:23:16Z</time>
      </trkpt>
      <trkpt lat="56.868728646323" lon="14.781704111454">
        <ele>167.2</ele>
        <time>2019-11-23T08:23:18Z</time>
      </trkpt>
      <trkpt lat="56.868806514174" lon="14.782033352486">
        <ele>166.2</ele>
        <time>2019-11-23T08:23:26Z</time>
      </trkpt>
      <trkpt lat="56.868809447839" lon="14.782077944194">
        <ele>166</ele>
        <time>2019-11-23T08:23:27Z</time>
      </trkpt>
      <trkpt lat="56.868858230497" lon="14.782285563857">
        <ele>165.6</ele>
        <time>2019-11-23T08:23:32Z</time>
      </trkpt>
      <trkpt lat="56.868900559092" lon="14.782453201857">
        <ele>164.8</ele>
        <time>2019-11-23T08:23:36Z</time>
      </trkpt>
      <trkpt lat="56.868990077784" lon="14.782796692119">
        <ele>163.8</ele>
        <time>2019-11-23T08:23:43Z</time>
      </trkpt>
      <trkpt lat="56.869063670866" lon="14.783057788304">
        <ele>163.8</ele>
        <time>2019-11-23T08:23:49Z</time>
      </trkpt>
      <trkpt lat="56.869163415476" lon="14.783360793989">
        <ele>163</ele>
        <time>2019-11-23T08:23:56Z</time>
      </trkpt>
      <trkpt lat="56.869188644995" lon="14.783501609909">
        <ele>162.6</ele>
        <time>2019-11-23T08:23:59Z</time>
      </trkpt>
      <trkpt lat="56.869246563924" lon="14.783826408534">
        <ele>162.4</ele>
        <time>2019-11-23T08:24:06Z</time>
      </trkpt>
      <trkpt lat="56.869272966909" lon="14.784022125899">
        <ele>162.4</ele>
        <time>2019-11-23T08:24:10Z</time>
      </trkpt>
      <trkpt lat="56.869342788136" lon="14.784354719691">
        <ele>163</ele>
        <time>2019-11-23T08:24:18Z</time>
      </trkpt>
      <trkpt lat="56.869437335968" lon="14.784662838335">
        <ele>162.6</ele>
        <time>2019-11-23T08:24:26Z</time>
      </trkpt>
      <trkpt lat="56.869470109197" lon="14.784687481121">
        <ele>162.8</ele>
        <time>2019-11-23T08:24:28Z</time>
      </trkpt>
      <trkpt lat="56.869654343359" lon="14.784733497752">
        <ele>162.6</ele>
        <time>2019-11-23T08:24:36Z</time>
      </trkpt>
      <trkpt lat="56.869854503131" lon="14.784724612938">
        <ele>162.6</ele>
        <time>2019-11-23T08:24:43Z</time>
      </trkpt>
      <trkpt lat="56.870052232152" lon="14.78467163933">
        <ele>162.6</ele>
        <time>2019-11-23T08:24:49Z</time>
      </trkpt>
      <trkpt lat="56.870250547906" lon="14.784669795312">
        <ele>163</ele>
        <time>2019-11-23T08:24:56Z</time>
      </trkpt>
      <trkpt lat="56.870432686593" lon="14.784702903817">
        <ele>162.6</ele>
        <time>2019-11-23T08:25:04Z</time>
      </trkpt>
      <trkpt lat="56.87062236899" lon="14.784717069228">
        <ele>162.6</ele>
        <time>2019-11-23T08:25:11Z</time>
      </trkpt>
      <trkpt lat="56.870825713884" lon="14.784714135563">
        <ele>162.8</ele>
        <time>2019-11-23T08:25:18Z</time>
      </trkpt>
      <trkpt lat="56.871021095973" lon="14.784732659562">
        <ele>162.6</ele>
        <time>2019-11-23T08:25:25Z</time>
      </trkpt>
      <trkpt lat="56.871217735347" lon="14.784780436392">
        <ele>162.8</ele>
        <time>2019-11-23T08:25:33Z</time>
      </trkpt>
      <trkpt lat="56.871401466595" lon="14.784806168825">
        <ele>163</ele>
        <time>2019-11-23T08:25:39Z</time>
      </trkpt>
      <trkpt lat="56.871580252522" lon="14.784852939827">
        <ele>163.6</ele>
        <time>2019-11-23T08:25:46Z</time>
      </trkpt>
      <trkpt lat="56.871631968845" lon="14.784859477709">
        <ele>163.8</ele>
        <time>2019-11-23T08:25:48Z</time>
      </trkpt>
      <trkpt lat="56.871826680382" lon="14.784879342812">
        <ele>163.4</ele>
        <time>2019-11-23T08:25:55Z</time>
      </trkpt>
      <trkpt lat="56.872017200969" lon="14.784865847953">
        <ele>163.2</ele>
        <time>2019-11-23T08:26:02Z</time>
      </trkpt>
      <trkpt lat="56.872190371023" lon="14.784945476003">
        <ele>163</ele>
        <time>2019-11-23T08:26:08Z</time>
      </trkpt>
      <trkpt lat="56.872231107057" lon="14.785039688559">
        <ele>163</ele>
        <time>2019-11-23T08:26:10Z</time>
      </trkpt>
      <trkpt lat="56.872200848398" lon="14.785376138025">
        <ele>162.8</ele>
        <time>2019-11-23T08:26:16Z</time>
      </trkpt>
      <trkpt lat="56.872189449014" lon="14.785720969391">
        <ele>163.2</ele>
        <time>2019-11-23T08:26:24Z</time>
      </trkpt>
      <trkpt lat="56.872222054605" lon="14.785754496991">
        <ele>162.8</ele>
        <time>2019-11-23T08:26:27Z</time>
      </trkpt>
      <trkpt lat="56.872195567801" lon="14.785733793698">
        <ele>162.8</ele>
        <time>2019-11-23T08:26:29Z</time>
      </trkpt>
      <trkpt lat="56.872185090426" lon="14.785655925847">
        <ele>162.8</ele>
        <time>2019-11-23T08:26:31Z</time>
      </trkpt>
      <trkpt lat="56.872218115112" lon="14.785297599622">
        <ele>163</ele>
        <time>2019-11-23T08:26:38Z</time>
      </trkpt>
      <trkpt lat="56.872249966332" lon="14.784933322248">
        <ele>163</ele>
        <time>2019-11-23T08:26:45Z</time>
      </trkpt>
      <trkpt lat="56.872390782252" lon="14.784694689555">
        <ele>163.2</ele>
        <time>2019-11-23T08:26:52Z</time>
      </trkpt>
      <trkpt lat="56.872532687819" lon="14.784474497042">
        <ele>163.2</ele>
        <time>2019-11-23T08:26:58Z</time>
      </trkpt>
      <trkpt lat="56.872688172064" lon="14.784262183515">
        <ele>163.2</ele>
        <time>2019-11-23T08:27:05Z</time>
      </trkpt>
      <trkpt lat="56.872826892509" lon="14.784052636015">
        <ele>163.4</ele>
        <time>2019-11-23T08:27:12Z</time>
      </trkpt>
      <trkpt lat="56.872990758654" lon="14.783838981384">
        <ele>163.4</ele>
        <time>2019-11-23T08:27:20Z</time>
      </trkpt>
      <trkpt lat="56.873166108002" lon="14.783665643692">
        <ele>163.2</ele>
        <time>2019-11-23T08:27:28Z</time>
      </trkpt>
      <trkpt lat="56.873341876445" lon="14.783501945185">
        <ele>163.4</ele>
        <time>2019-11-23T08:27:36Z</time>
      </trkpt>
      <trkpt lat="56.873412200586" lon="14.783447127559">
        <ele>164</ele>
        <time>2019-11-23T08:27:39Z</time>
      </trkpt>
      <trkpt lat="56.873483446736" lon="14.783374037391">
        <ele>164.4</ele>
        <time>2019-11-23T08:27:44Z</time>
      </trkpt>
      <trkpt lat="56.873574557989" lon="14.783690286478">
        <ele>163.4</ele>
        <time>2019-11-23T08:27:52Z</time>
      </trkpt>
      <trkpt lat="56.873630046167" lon="14.78397510344">
        <ele>163.2</ele>
        <time>2019-11-23T08:27:58Z</time>
      </trkpt>
      <trkpt lat="56.873716631194" lon="14.784282048618">
        <ele>163.2</ele>
        <time>2019-11-23T08:28:05Z</time>
      </trkpt>
      <trkpt lat="56.873734317003" lon="14.784562004078">
        <ele>163</ele>
        <time>2019-11-23T08:28:11Z</time>
      </trkpt>
      <trkpt lat="56.873656113876" lon="14.784898956458">
        <ele>163.2</ele>
        <time>2019-11-23T08:28:19Z</time>
      </trkpt>
      <trkpt lat="56.873656197695" lon="14.78526591604">
        <ele>163.4</ele>
        <time>2019-11-23T08:28:26Z</time>
      </trkpt>
      <trkpt lat="56.87369601172" lon="14.785632791803">
        <ele>162.2</ele>
        <time>2019-11-23T08:28:33Z</time>
      </trkpt>
      <trkpt lat="56.873711182959" lon="14.785734715707">
        <ele>161.8</ele>
        <time>2019-11-23T08:28:35Z</time>
      </trkpt>
      <trkpt lat="56.873759881798" lon="14.786006121629">
        <ele>160.6</ele>
        <time>2019-11-23T08:28:41Z</time>
      </trkpt>
      <trkpt lat="56.873769856259" lon="14.786034200994">
        <ele>160.6</ele>
        <time>2019-11-23T08:28:42Z</time>
      </trkpt>
      <trkpt lat="56.873879826787" lon="14.786279623026">
        <ele>160</ele>
        <time>2019-11-23T08:28:48Z</time>
      </trkpt>
      <trkpt lat="56.87394746872" lon="14.786625711677">
        <ele>161.2</ele>
        <time>2019-11-23T08:28:56Z</time>
      </trkpt>
      <trkpt lat="56.873996670473" lon="14.786865936931">
        <ele>161.8</ele>
        <time>2019-11-23T08:29:02Z</time>
      </trkpt>
      <trkpt lat="56.874088619916" lon="14.787157794689">
        <ele>162.8</ele>
        <time>2019-11-23T08:29:09Z</time>
      </trkpt>
      <trkpt lat="56.874165733396" lon="14.787453089026">
        <ele>163.4</ele>
        <time>2019-11-23T08:29:16Z</time>
      </trkpt>
      <trkpt lat="56.874165984853" lon="14.787586696512">
        <ele>163.4</ele>
        <time>2019-11-23T08:29:19Z</time>
      </trkpt>
      <trkpt lat="56.874007986038" lon="14.787743354223">
        <ele>163</ele>
        <time>2019-11-23T08:29:25Z</time>
      </trkpt>
      <trkpt lat="56.873832385233" lon="14.787899592839">
        <ele>162.8</ele>
        <time>2019-11-23T08:29:33Z</time>
      </trkpt>
      <trkpt lat="56.873648570166" lon="14.788016939439">
        <ele>163.2</ele>
        <time>2019-11-23T08:29:41Z</time>
      </trkpt>
      <trkpt lat="56.873473723732" lon="14.788170998761">
        <ele>163</ele>
        <time>2019-11-23T08:29:49Z</time>
      </trkpt>
      <trkpt lat="56.873297536194" lon="14.788247190232">
        <ele>162.8</ele>
        <time>2019-11-23T08:29:56Z</time>
      </trkpt>
      <trkpt lat="56.873120007552" lon="14.788306617903">
        <ele>162.8</ele>
        <time>2019-11-23T08:30:03Z</time>
      </trkpt>
      <trkpt lat="56.872941724539" lon="14.788387000324">
        <ele>162.8</ele>
        <time>2019-11-23T08:30:10Z</time>
      </trkpt>
      <trkpt lat="56.872754640531" lon="14.788561846758">
        <ele>162.6</ele>
        <time>2019-11-23T08:30:17Z</time>
      </trkpt>
      <trkpt lat="56.872583817409" lon="14.788693610226">
        <ele>162.8</ele>
        <time>2019-11-23T08:30:26Z</time>
      </trkpt>
      <trkpt lat="56.872395811392" lon="14.788791510818">
        <ele>162.8</ele>
        <time>2019-11-23T08:30:34Z</time>
      </trkpt>
      <trkpt lat="56.872449958466" lon="14.789137599469">
        <ele>163.4</ele>
        <time>2019-11-23T08:30:43Z</time>
      </trkpt>
      <trkpt lat="56.872486838826" lon="14.789497518255">
        <ele>163.8</ele>
        <time>2019-11-23T08:30:50Z</time>
      </trkpt>
      <trkpt lat="56.872486168274" lon="14.789630455189">
        <ele>163.8</ele>
        <time>2019-11-23T08:30:52Z</time>
      </trkpt>
      <trkpt lat="56.87251416382" lon="14.789972688166">
        <ele>165</ele>
        <time>2019-11-23T08:30:58Z</time>
      </trkpt>
      <trkpt lat="56.872592031671" lon="14.790277537869">
        <ele>165.6</ele>
        <time>2019-11-23T08:31:05Z</time>
      </trkpt>
      <trkpt lat="56.87268264001" lon="14.790609544928">
        <ele>165.6</ele>
        <time>2019-11-23T08:31:13Z</time>
      </trkpt>
      <trkpt lat="56.872725806795" lon="14.790765867363">
        <ele>166</ele>
        <time>2019-11-23T08:31:17Z</time>
      </trkpt>
      <trkpt lat="56.872799902791" lon="14.791101478639">
        <ele>166.2</ele>
        <time>2019-11-23T08:31:25Z</time>
      </trkpt>
      <trkpt lat="56.872727399356" lon="14.791384451583">
        <ele>166.2</ele>
        <time>2019-11-23T08:31:33Z</time>
      </trkpt>
      <trkpt lat="56.872569149084" lon="14.791542534217">
        <ele>166.4</ele>
        <time>2019-11-23T08:31:39Z</time>
      </trkpt>
      <trkpt lat="56.872398996514" lon="14.791676812255">
        <ele>166.2</ele>
        <time>2019-11-23T08:31:46Z</time>
      </trkpt>
      <trkpt lat="56.872270669625" lon="14.791787118059">
        <ele>166.8</ele>
        <time>2019-11-23T08:31:52Z</time>
      </trkpt>
      <trkpt lat="56.872262539182" lon="14.791832380319">
        <ele>167</ele>
        <time>2019-11-23T08:31:53Z</time>
      </trkpt>
      <trkpt lat="56.872301095922" lon="14.791994653903">
        <ele>168</ele>
        <time>2019-11-23T08:31:57Z</time>
      </trkpt>
      <trkpt lat="56.872483402247" lon="14.792143013533">
        <ele>169.2</ele>
        <time>2019-11-23T08:32:05Z</time>
      </trkpt>
      <trkpt lat="56.872606280901" lon="14.792237812822">
        <ele>169.2</ele>
        <time>2019-11-23T08:32:11Z</time>
      </trkpt>
      <trkpt lat="56.872740726577" lon="14.792460687543">
        <ele>169.6</ele>
        <time>2019-11-23T08:32:19Z</time>
      </trkpt>
      <trkpt lat="56.87282094136" lon="14.79267467745">
        <ele>170.4</ele>
        <time>2019-11-23T08:32:25Z</time>
      </trkpt>
      <trkpt lat="56.872847847259" lon="14.792691608888">
        <ele>170.4</ele>
        <time>2019-11-23T08:32:26Z</time>
      </trkpt>
      <trkpt lat="56.873054628732" lon="14.792740559184">
        <ele>170.4</ele>
        <time>2019-11-23T08:32:33Z</time>
      </trkpt>
      <trkpt lat="56.873087904875" lon="14.792790431489">
        <ele>170.4</ele>
        <time>2019-11-23T08:32:35Z</time>
      </trkpt>
      <trkpt lat="56.873201982534" lon="14.792801747054">
        <ele>170.6</ele>
        <time>2019-11-23T08:32:40Z</time>
      </trkpt>
    </trkseg>
  </trk>
</gpx>